CFG272 MDPC-EDDF
Flight info
| Callsign | CFG272 |
|---|---|
| Flight time | 9h 43m |
| Altitude | 38000 |
| Route | CHUMA Y315 KEEKA/M083F380 M597 FIVZE DCT 32N050W 39N040W 43N030W 47N020W DCT BEDRA DCT NASBA DCT GAPLI/N0470F380 DCT SIDDI DCT DAWLY DCT GIBSO L620 SAM M140 DVR UL9 KONAN DCT KOK DCT DENOX L607 GILOM M624 REMBA DCT SPI T180 NIVNU T847 IMCOM |
| Aircraft | A339/H-SADE1E2E3GHIJ3J5M1P2RWXY/LB2D1 |
Departure
| Time | 2026-05-08 11:02 |
|---|---|
| Airport | Punta Cana International Airport (MDPC) |
Arrival
| Time | 2026-05-08 20:46 |
|---|---|
| Airport | Frankfurt Main Airport (EDDF) |
| Time | Latitude | Longitude | Altitude | Speed | Heading |
|---|---|---|---|---|---|
| 2026-05-08 10:15 | 18.56370 | -68.36554 | 50 ft | 0 kts | 175° |
| 2026-05-08 10:51 | 18.56371 | -68.36554 | 56 ft | 3 kts | 175° |
| 2026-05-08 10:51 | 18.56391 | -68.36556 | 49 ft | 3 kts | 175° |
| 2026-05-08 10:51 | 18.56412 | -68.36558 | 48 ft | 3 kts | 175° |
| 2026-05-08 10:51 | 18.56435 | -68.36560 | 48 ft | 3 kts | 209° |
| 2026-05-08 10:52 | 18.56450 | -68.36545 | 48 ft | 3 kts | 265° |
| 2026-05-08 10:52 | 18.56451 | -68.36528 | 48 ft | 0 kts | 265° |
| 2026-05-08 10:57 | 18.56454 | -68.36564 | 53 ft | 7 kts | 282° |
| 2026-05-08 10:58 | 18.56506 | -68.36657 | 52 ft | 19 kts | 302° |
| 2026-05-08 10:58 | 18.56518 | -68.36792 | 51 ft | 19 kts | 262° |
| 2026-05-08 10:58 | 18.56508 | -68.36926 | 51 ft | 18 kts | 265° |
| 2026-05-08 10:58 | 18.56497 | -68.37058 | 55 ft | 18 kts | 265° |
| 2026-05-08 10:59 | 18.56485 | -68.37188 | 56 ft | 18 kts | 264° |
| 2026-05-08 10:59 | 18.56474 | -68.37317 | 50 ft | 18 kts | 265° |
| 2026-05-08 10:59 | 18.56464 | -68.37444 | 53 ft | 17 kts | 265° |
| 2026-05-08 10:59 | 18.56454 | -68.37570 | 52 ft | 17 kts | 265° |
| 2026-05-08 11:00 | 18.56443 | -68.37694 | 53 ft | 17 kts | 265° |
| 2026-05-08 11:00 | 18.56470 | -68.37773 | 51 ft | 8 kts | 330° |
| 2026-05-08 11:00 | 18.56539 | -68.37787 | 55 ft | 11 kts | 354° |
| 2026-05-08 11:00 | 18.56594 | -68.37787 | 50 ft | 4 kts | 13° |
| 2026-05-08 11:01 | 18.56606 | -68.37767 | 51 ft | 4 kts | 51° |
| 2026-05-08 11:01 | 18.56612 | -68.37743 | 51 ft | 0 kts | 79° |
| 2026-05-08 11:01 | 18.56615 | -68.37726 | 52 ft | 19 kts | 80° |
| 2026-05-08 11:01 | 18.56653 | -68.37298 | 55 ft | 97 kts | 84° |
| 2026-05-08 11:02 | 18.56735 | -68.36351 | 54 ft | 159 kts | 85° |
| 2026-05-08 11:02 | 18.56966 | -68.33852 | 1013 ft | 185 kts | 86° |
| 2026-05-08 11:02 | 18.57161 | -68.32532 | 1837 ft | 176 kts | 73° |
| 2026-05-08 11:03 | 18.57725 | -68.31399 | 2508 ft | 184 kts | 61° |
| 2026-05-08 11:03 | 18.58452 | -68.30238 | 2966 ft | 195 kts | 56° |
| 2026-05-08 11:03 | 18.59313 | -68.29069 | 3369 ft | 210 kts | 53° |
| 2026-05-08 11:03 | 18.60272 | -68.27824 | 3700 ft | 224 kts | 54° |
| 2026-05-08 11:04 | 18.61458 | -68.26656 | 3868 ft | 247 kts | 31° |
| 2026-05-08 11:04 | 18.63166 | -68.26137 | 4159 ft | 265 kts | 4° |
| 2026-05-08 11:04 | 18.64988 | -68.26516 | 4715 ft | 274 kts | 338° |
| 2026-05-08 11:04 | 18.66542 | -68.27691 | 4978 ft | 279 kts | 315° |
| 2026-05-08 11:05 | 18.67799 | -68.29258 | 5038 ft | 280 kts | 311° |
| 2026-05-08 11:05 | 18.69182 | -68.30678 | 5035 ft | 277 kts | 324° |
| 2026-05-08 11:05 | 18.70844 | -68.31695 | 5026 ft | 277 kts | 340° |
| 2026-05-08 11:05 | 18.72689 | -68.32264 | 5410 ft | 276 kts | 351° |
| 2026-05-08 11:06 | 18.74581 | -68.32618 | 5852 ft | 277 kts | 353° |
| 2026-05-08 11:06 | 18.76481 | -68.32894 | 6007 ft | 276 kts | 355° |
| 2026-05-08 11:06 | 18.78392 | -68.33144 | 6040 ft | 277 kts | 355° |
| 2026-05-08 11:06 | 18.80305 | -68.33393 | 6085 ft | 280 kts | 355° |
| 2026-05-08 11:07 | 18.82238 | -68.33649 | 6581 ft | 280 kts | 355° |
| 2026-05-08 11:07 | 18.84177 | -68.33917 | 7133 ft | 280 kts | 355° |
| 2026-05-08 11:07 | 18.86115 | -68.34187 | 7687 ft | 281 kts | 355° |
| 2026-05-08 11:07 | 18.88063 | -68.34459 | 8194 ft | 284 kts | 355° |
| 2026-05-08 11:08 | 18.90012 | -68.34731 | 8820 ft | 282 kts | 355° |
| 2026-05-08 11:08 | 18.91965 | -68.35003 | 9320 ft | 284 kts | 354° |
| 2026-05-08 11:08 | 18.93940 | -68.35276 | 9842 ft | 287 kts | 354° |
| 2026-05-08 11:08 | 18.95896 | -68.35549 | 10301 ft | 291 kts | 354° |
| 2026-05-08 11:09 | 18.97960 | -68.35834 | 10421 ft | 307 kts | 353° |
| 2026-05-08 11:09 | 19.00136 | -68.36136 | 10555 ft | 322 kts | 353° |
| 2026-05-08 11:09 | 19.02400 | -68.36453 | 10753 ft | 334 kts | 353° |
| 2026-05-08 11:09 | 19.04722 | -68.36778 | 11119 ft | 339 kts | 353° |
| 2026-05-08 11:10 | 19.07074 | -68.37108 | 11555 ft | 341 kts | 353° |
| 2026-05-08 11:10 | 19.09417 | -68.37437 | 12104 ft | 340 kts | 353° |
| 2026-05-08 11:10 | 19.11781 | -68.37765 | 12471 ft | 345 kts | 353° |
| 2026-05-08 11:10 | 19.14178 | -68.37911 | 12952 ft | 345 kts | 1° |
| 2026-05-08 11:11 | 19.16571 | -68.37754 | 13454 ft | 346 kts | 7° |
| 2026-05-08 11:11 | 19.18962 | -68.37296 | 13815 ft | 351 kts | 13° |
| 2026-05-08 11:11 | 19.21294 | -68.36537 | 14257 ft | 352 kts | 20° |
| 2026-05-08 11:11 | 19.23550 | -68.35490 | 14607 ft | 356 kts | 26° |
| 2026-05-08 11:12 | 19.25681 | -68.34163 | 15023 ft | 357 kts | 33° |
| 2026-05-08 11:12 | 19.27673 | -68.32563 | 15394 ft | 361 kts | 39° |
| 2026-05-08 11:12 | 19.29481 | -68.30709 | 15801 ft | 364 kts | 46° |
| 2026-05-08 11:12 | 19.31163 | -68.28688 | 16156 ft | 367 kts | 47° |
| 2026-05-08 11:13 | 19.32862 | -68.26664 | 16523 ft | 369 kts | 46° |
| 2026-05-08 11:13 | 19.34578 | -68.24634 | 16911 ft | 371 kts | 46° |
| 2026-05-08 11:13 | 19.36304 | -68.22596 | 17272 ft | 373 kts | 46° |
| 2026-05-08 11:13 | 19.38040 | -68.20546 | 17634 ft | 375 kts | 46° |
| 2026-05-08 11:14 | 19.39787 | -68.18481 | 17977 ft | 378 kts | 46° |
| 2026-05-08 11:14 | 19.41548 | -68.16397 | 18326 ft | 380 kts | 46° |
| 2026-05-08 11:14 | 19.43317 | -68.14303 | 18644 ft | 382 kts | 46° |
| 2026-05-08 11:14 | 19.45092 | -68.12201 | 18978 ft | 384 kts | 46° |
| 2026-05-08 11:15 | 19.46876 | -68.10087 | 19283 ft | 386 kts | 46° |
| 2026-05-08 11:15 | 19.48670 | -68.07961 | 19621 ft | 388 kts | 46° |
| 2026-05-08 11:15 | 19.50474 | -68.05824 | 19923 ft | 390 kts | 46° |
| 2026-05-08 11:15 | 19.52286 | -68.03676 | 20254 ft | 392 kts | 46° |
| 2026-05-08 11:16 | 19.54109 | -68.01514 | 20561 ft | 394 kts | 46° |
| 2026-05-08 11:16 | 19.55939 | -67.99343 | 20890 ft | 396 kts | 46° |
| 2026-05-08 11:16 | 19.57781 | -67.97156 | 21207 ft | 398 kts | 46° |
| 2026-05-08 11:16 | 19.59629 | -67.94961 | 21521 ft | 401 kts | 46° |
| 2026-05-08 11:17 | 19.61489 | -67.92752 | 21868 ft | 402 kts | 46° |
| 2026-05-08 11:17 | 19.63361 | -67.90529 | 22143 ft | 406 kts | 46° |
| 2026-05-08 11:17 | 19.65240 | -67.88295 | 22513 ft | 406 kts | 47° |
| 2026-05-08 11:17 | 19.67128 | -67.86049 | 22779 ft | 410 kts | 47° |
| 2026-05-08 11:18 | 19.69026 | -67.83790 | 23155 ft | 411 kts | 47° |
| 2026-05-08 11:18 | 19.70935 | -67.81517 | 23422 ft | 414 kts | 47° |
| 2026-05-08 11:18 | 19.72856 | -67.79230 | 23716 ft | 416 kts | 47° |
| 2026-05-08 11:18 | 19.74789 | -67.76928 | 24002 ft | 418 kts | 46° |
| 2026-05-08 11:19 | 19.76723 | -67.74623 | 24266 ft | 420 kts | 46° |
| 2026-05-08 11:19 | 19.78666 | -67.72306 | 24605 ft | 420 kts | 47° |
| 2026-05-08 11:19 | 19.80614 | -67.69982 | 24860 ft | 423 kts | 47° |
| 2026-05-08 11:19 | 19.82544 | -67.67679 | 25162 ft | 424 kts | 47° |
| 2026-05-08 11:20 | 19.84508 | -67.65334 | 25432 ft | 426 kts | 47° |
| 2026-05-08 11:20 | 19.86480 | -67.62980 | 25717 ft | 427 kts | 47° |
| 2026-05-08 11:20 | 19.88458 | -67.60615 | 26027 ft | 428 kts | 47° |
| 2026-05-08 11:20 | 19.90442 | -67.58244 | 26290 ft | 431 kts | 47° |
| 2026-05-08 11:21 | 19.92435 | -67.55861 | 26581 ft | 432 kts | 47° |
| 2026-05-08 11:21 | 19.94435 | -67.53469 | 26858 ft | 434 kts | 47° |
| 2026-05-08 11:21 | 19.96439 | -67.51070 | 27173 ft | 435 kts | 47° |
| 2026-05-08 11:21 | 19.98452 | -67.48659 | 27452 ft | 436 kts | 47° |
| 2026-05-08 11:22 | 20.00470 | -67.46244 | 27721 ft | 438 kts | 47° |
| 2026-05-08 11:22 | 20.02497 | -67.43813 | 28007 ft | 440 kts | 47° |
| 2026-05-08 11:22 | 20.04531 | -67.41372 | 28281 ft | 442 kts | 47° |
| 2026-05-08 11:22 | 20.06571 | -67.38924 | 28565 ft | 443 kts | 47° |
| 2026-05-08 11:23 | 20.08621 | -67.36463 | 28841 ft | 445 kts | 47° |
| 2026-05-08 11:23 | 20.10677 | -67.33995 | 29116 ft | 447 kts | 47° |
| 2026-05-08 11:23 | 20.12740 | -67.31517 | 29387 ft | 448 kts | 47° |
| 2026-05-08 11:23 | 20.14810 | -67.29029 | 29671 ft | 450 kts | 47° |
| 2026-05-08 11:24 | 20.16889 | -67.26530 | 29960 ft | 452 kts | 47° |
| 2026-05-08 11:24 | 20.18974 | -67.24021 | 30220 ft | 453 kts | 46° |
| 2026-05-08 11:24 | 20.21065 | -67.21504 | 30512 ft | 454 kts | 47° |
| 2026-05-08 11:24 | 20.23149 | -67.18995 | 30956 ft | 451 kts | 47° |
| 2026-05-08 11:25 | 20.25233 | -67.16483 | 31098 ft | 456 kts | 46° |
| 2026-05-08 11:25 | 20.27343 | -67.13942 | 31328 ft | 458 kts | 46° |
| 2026-05-08 11:25 | 20.29454 | -67.11398 | 31630 ft | 459 kts | 46° |
| 2026-05-08 11:25 | 20.31569 | -67.08848 | 31901 ft | 460 kts | 46° |
| 2026-05-08 11:26 | 20.33691 | -67.06288 | 32171 ft | 461 kts | 46° |
| 2026-05-08 11:26 | 20.35814 | -67.03724 | 32426 ft | 462 kts | 46° |
| 2026-05-08 11:26 | 20.37946 | -67.01150 | 32661 ft | 463 kts | 46° |
| 2026-05-08 11:26 | 20.40079 | -66.98573 | 32868 ft | 464 kts | 46° |
| 2026-05-08 11:27 | 20.42218 | -66.95987 | 33059 ft | 465 kts | 46° |
| 2026-05-08 11:27 | 20.44359 | -66.93398 | 33229 ft | 466 kts | 46° |
| 2026-05-08 11:27 | 20.46506 | -66.90799 | 33384 ft | 467 kts | 46° |
| 2026-05-08 11:27 | 20.48654 | -66.88199 | 33550 ft | 467 kts | 45° |
| 2026-05-08 11:28 | 20.50791 | -66.85608 | 33812 ft | 464 kts | 45° |
| 2026-05-08 11:28 | 20.55065 | -66.80429 | 34083 ft | 465 kts | 45° |
| 2026-05-08 11:28 | 20.57201 | -66.77838 | 34255 ft | 464 kts | 45° |
| 2026-05-08 11:29 | 20.59332 | -66.75253 | 34422 ft | 463 kts | 45° |
| 2026-05-08 11:29 | 20.61455 | -66.72675 | 34590 ft | 462 kts | 45° |
| 2026-05-08 11:29 | 20.63573 | -66.70103 | 34749 ft | 461 kts | 45° |
| 2026-05-08 11:29 | 20.65690 | -66.67530 | 34897 ft | 460 kts | 45° |
| 2026-05-08 11:30 | 20.67800 | -66.64965 | 35082 ft | 459 kts | 45° |
| 2026-05-08 11:30 | 20.69906 | -66.62404 | 35229 ft | 459 kts | 45° |
| 2026-05-08 11:30 | 20.72009 | -66.59845 | 35383 ft | 458 kts | 45° |
| 2026-05-08 11:30 | 20.74107 | -66.57292 | 35535 ft | 457 kts | 45° |
| 2026-05-08 11:31 | 20.76195 | -66.54748 | 35780 ft | 454 kts | 45° |
| 2026-05-08 11:31 | 20.78274 | -66.52215 | 35891 ft | 454 kts | 45° |
| 2026-05-08 11:31 | 20.80357 | -66.49676 | 35999 ft | 454 kts | 45° |
| 2026-05-08 11:31 | 20.82439 | -66.47138 | 36135 ft | 454 kts | 45° |
| 2026-05-08 11:32 | 20.84517 | -66.44603 | 36277 ft | 453 kts | 45° |
| 2026-05-08 11:32 | 20.86560 | -66.42108 | 36418 ft | 452 kts | 45° |
| 2026-05-08 11:32 | 20.88631 | -66.39579 | 36559 ft | 451 kts | 45° |
| 2026-05-08 11:32 | 20.90696 | -66.37056 | 36682 ft | 451 kts | 45° |
| 2026-05-08 11:33 | 20.92758 | -66.34536 | 36828 ft | 450 kts | 45° |
| 2026-05-08 11:33 | 20.94817 | -66.32018 | 36948 ft | 449 kts | 45° |
| 2026-05-08 11:33 | 20.96873 | -66.29504 | 37086 ft | 449 kts | 45° |
| 2026-05-08 11:33 | 20.98925 | -66.26992 | 37211 ft | 448 kts | 45° |
| 2026-05-08 11:34 | 21.00974 | -66.24483 | 37352 ft | 447 kts | 45° |
| 2026-05-08 11:34 | 21.02354 | -66.22791 | 37488 ft | 445 kts | 45° |
| 2026-05-08 11:34 | 21.04391 | -66.20296 | 37589 ft | 446 kts | 45° |
| 2026-05-08 11:34 | 21.06430 | -66.17796 | 37694 ft | 445 kts | 45° |
| 2026-05-08 11:35 | 21.08465 | -66.15300 | 37802 ft | 445 kts | 46° |
| 2026-05-08 11:35 | 21.10473 | -66.12837 | 37918 ft | 444 kts | 46° |
| 2026-05-08 11:35 | 21.12502 | -66.10345 | 38026 ft | 444 kts | 46° |
| 2026-05-08 11:36 | 21.16556 | -66.05365 | 38072 ft | 443 kts | 46° |
| 2026-05-08 11:36 | 21.20602 | -66.00390 | 38074 ft | 443 kts | 46° |
| 2026-05-08 11:37 | 21.24647 | -65.95412 | 38051 ft | 443 kts | 46° |
| 2026-05-08 11:37 | 21.28691 | -65.90430 | 38064 ft | 442 kts | 46° |
| 2026-05-08 11:38 | 21.32742 | -65.85443 | 38067 ft | 444 kts | 45° |
| 2026-05-08 11:38 | 21.37215 | -65.80910 | 38067 ft | 441 kts | 38° |
| 2026-05-08 11:39 | 21.41859 | -65.76640 | 38063 ft | 440 kts | 38° |
| 2026-05-08 11:39 | 21.46498 | -65.72344 | 38064 ft | 440 kts | 38° |
| 2026-05-08 11:40 | 21.51137 | -65.68047 | 38071 ft | 440 kts | 38° |
| 2026-05-08 11:40 | 21.55775 | -65.63748 | 38067 ft | 441 kts | 38° |
| 2026-05-08 11:41 | 21.60431 | -65.59431 | 38073 ft | 442 kts | 38° |
| 2026-05-08 11:41 | 21.65066 | -65.55127 | 38076 ft | 440 kts | 38° |
| 2026-05-08 11:42 | 21.69703 | -65.50819 | 38071 ft | 441 kts | 38° |
| 2026-05-08 11:42 | 21.74340 | -65.46507 | 38072 ft | 441 kts | 38° |
| 2026-05-08 11:43 | 21.78974 | -65.42193 | 38076 ft | 441 kts | 38° |
| 2026-05-08 11:43 | 21.83610 | -65.37874 | 38067 ft | 441 kts | 38° |
| 2026-05-08 11:44 | 21.88252 | -65.33546 | 38065 ft | 442 kts | 38° |
| 2026-05-08 11:44 | 21.92896 | -65.29213 | 38088 ft | 442 kts | 38° |
| 2026-05-08 11:45 | 21.97543 | -65.24871 | 38073 ft | 442 kts | 38° |
| 2026-05-08 11:45 | 22.02188 | -65.20528 | 38081 ft | 442 kts | 38° |
| 2026-05-08 11:46 | 22.06826 | -65.16186 | 38082 ft | 442 kts | 38° |
| 2026-05-08 11:46 | 22.11107 | -65.11393 | 38070 ft | 446 kts | 47° |
| 2026-05-08 11:47 | 22.14828 | -65.06011 | 38076 ft | 448 kts | 50° |
| 2026-05-08 11:47 | 22.18538 | -65.00613 | 38075 ft | 448 kts | 50° |
| 2026-05-08 11:48 | 22.22248 | -64.95209 | 38085 ft | 448 kts | 50° |
| 2026-05-08 11:48 | 22.25954 | -64.89797 | 38082 ft | 448 kts | 50° |
| 2026-05-08 11:49 | 22.29655 | -64.84384 | 38081 ft | 448 kts | 50° |
| 2026-05-08 11:49 | 22.33326 | -64.79010 | 38076 ft | 449 kts | 50° |
| 2026-05-08 11:50 | 22.37028 | -64.73585 | 38080 ft | 449 kts | 50° |
| 2026-05-08 11:50 | 22.40731 | -64.68154 | 38080 ft | 449 kts | 50° |
| 2026-05-08 11:51 | 22.44435 | -64.62715 | 38075 ft | 449 kts | 50° |
| 2026-05-08 11:51 | 22.48135 | -64.57275 | 38079 ft | 449 kts | 50° |
| 2026-05-08 11:52 | 22.51838 | -64.51828 | 38082 ft | 449 kts | 50° |
| 2026-05-08 11:52 | 22.55537 | -64.46379 | 38079 ft | 449 kts | 50° |
| 2026-05-08 11:53 | 22.59235 | -64.40926 | 38080 ft | 449 kts | 50° |
| 2026-05-08 11:53 | 22.62931 | -64.35471 | 38100 ft | 449 kts | 50° |
| 2026-05-08 11:54 | 22.66625 | -64.30013 | 38084 ft | 449 kts | 50° |
| 2026-05-08 11:54 | 22.70315 | -64.24555 | 38085 ft | 449 kts | 50° |
| 2026-05-08 11:55 | 22.74003 | -64.19095 | 38084 ft | 449 kts | 50° |
| 2026-05-08 11:55 | 22.77687 | -64.13635 | 38082 ft | 449 kts | 50° |
| 2026-05-08 11:56 | 22.81374 | -64.08164 | 38075 ft | 450 kts | 50° |
| 2026-05-08 11:56 | 22.85063 | -64.02687 | 38085 ft | 450 kts | 50° |
| 2026-05-08 11:57 | 22.88752 | -63.97200 | 38084 ft | 450 kts | 50° |
| 2026-05-08 11:57 | 22.92441 | -63.91709 | 38084 ft | 450 kts | 50° |
| 2026-05-08 11:58 | 22.96128 | -63.86215 | 38085 ft | 450 kts | 50° |
| 2026-05-08 11:58 | 22.99813 | -63.80719 | 38085 ft | 450 kts | 50° |
| 2026-05-08 11:59 | 23.05316 | -63.72499 | 38087 ft | 451 kts | 50° |
| 2026-05-08 11:59 | 23.09000 | -63.66989 | 38085 ft | 451 kts | 50° |
| 2026-05-08 12:00 | 23.12683 | -63.61475 | 38089 ft | 451 kts | 50° |
| 2026-05-08 12:00 | 23.16362 | -63.55961 | 38091 ft | 451 kts | 50° |
| 2026-05-08 12:01 | 23.20040 | -63.50443 | 38086 ft | 451 kts | 50° |
| 2026-05-08 12:01 | 23.23716 | -63.44922 | 38085 ft | 451 kts | 50° |
| 2026-05-08 12:02 | 23.27395 | -63.39390 | 38089 ft | 451 kts | 50° |
| 2026-05-08 12:02 | 23.31069 | -63.33860 | 38088 ft | 451 kts | 50° |
| 2026-05-08 12:03 | 23.34742 | -63.28325 | 38091 ft | 451 kts | 50° |
| 2026-05-08 12:03 | 23.38413 | -63.22787 | 38089 ft | 451 kts | 50° |
| 2026-05-08 12:04 | 23.42081 | -63.17247 | 38090 ft | 451 kts | 50° |
| 2026-05-08 12:04 | 23.45748 | -63.11703 | 38098 ft | 451 kts | 50° |
| 2026-05-08 12:05 | 23.49405 | -63.06139 | 38084 ft | 452 kts | 52° |
| 2026-05-08 12:05 | 23.52574 | -63.00182 | 38080 ft | 456 kts | 57° |
| 2026-05-08 12:06 | 23.55628 | -62.94135 | 38088 ft | 456 kts | 57° |
| 2026-05-08 12:06 | 23.58694 | -62.88088 | 38088 ft | 456 kts | 57° |
| 2026-05-08 12:07 | 23.61756 | -62.82033 | 38103 ft | 456 kts | 57° |
| 2026-05-08 12:07 | 23.64813 | -62.75972 | 38100 ft | 456 kts | 57° |
| 2026-05-08 12:08 | 23.67866 | -62.69914 | 38099 ft | 456 kts | 57° |
| 2026-05-08 12:08 | 23.70919 | -62.63846 | 38100 ft | 456 kts | 57° |
| 2026-05-08 12:09 | 23.73970 | -62.57776 | 38100 ft | 456 kts | 57° |
| 2026-05-08 12:09 | 23.77020 | -62.51699 | 38087 ft | 457 kts | 57° |
| 2026-05-08 12:10 | 23.80069 | -62.45616 | 38076 ft | 457 kts | 57° |
| 2026-05-08 12:10 | 23.83115 | -62.39533 | 38072 ft | 457 kts | 57° |
| 2026-05-08 12:11 | 23.86160 | -62.33444 | 38076 ft | 457 kts | 57° |
| 2026-05-08 12:11 | 23.89183 | -62.27391 | 38079 ft | 457 kts | 57° |
| 2026-05-08 12:12 | 23.92224 | -62.21293 | 38095 ft | 457 kts | 57° |
| 2026-05-08 12:12 | 23.95268 | -62.15184 | 38095 ft | 457 kts | 57° |
| 2026-05-08 12:13 | 23.98309 | -62.09072 | 38092 ft | 458 kts | 57° |
| 2026-05-08 12:13 | 24.01348 | -62.02955 | 38094 ft | 458 kts | 57° |
| 2026-05-08 12:14 | 24.04385 | -61.96837 | 38095 ft | 458 kts | 57° |
| 2026-05-08 12:14 | 24.07420 | -61.90714 | 38101 ft | 458 kts | 57° |
| 2026-05-08 12:15 | 24.10454 | -61.84583 | 38093 ft | 458 kts | 57° |
| 2026-05-08 12:15 | 24.13486 | -61.78451 | 38097 ft | 458 kts | 57° |
| 2026-05-08 12:16 | 24.16517 | -61.72314 | 38095 ft | 458 kts | 57° |
| 2026-05-08 12:16 | 24.19545 | -61.66173 | 38097 ft | 458 kts | 57° |
| 2026-05-08 12:17 | 24.22570 | -61.60029 | 38100 ft | 458 kts | 57° |
| 2026-05-08 12:17 | 24.25594 | -61.53881 | 38101 ft | 458 kts | 57° |
| 2026-05-08 12:18 | 24.28615 | -61.47732 | 38094 ft | 458 kts | 57° |
| 2026-05-08 12:18 | 24.31614 | -61.41618 | 38097 ft | 459 kts | 57° |
| 2026-05-08 12:19 | 24.34634 | -61.35454 | 38098 ft | 459 kts | 57° |
| 2026-05-08 12:19 | 24.37651 | -61.29287 | 38098 ft | 459 kts | 57° |
| 2026-05-08 12:20 | 24.40668 | -61.23115 | 38096 ft | 459 kts | 57° |
| 2026-05-08 12:20 | 24.43193 | -61.17940 | 38102 ft | 459 kts | 57° |
| 2026-05-08 12:21 | 24.46206 | -61.11761 | 38095 ft | 459 kts | 57° |
| 2026-05-08 12:21 | 24.49194 | -61.05624 | 38097 ft | 459 kts | 57° |
| 2026-05-08 12:22 | 24.52203 | -60.99434 | 38093 ft | 460 kts | 57° |
| 2026-05-08 12:22 | 24.55210 | -60.93242 | 38089 ft | 460 kts | 57° |
| 2026-05-08 12:23 | 24.58213 | -60.87049 | 38088 ft | 459 kts | 57° |
| 2026-05-08 12:23 | 24.61214 | -60.80853 | 38091 ft | 459 kts | 57° |
| 2026-05-08 12:24 | 24.64213 | -60.74652 | 38118 ft | 459 kts | 57° |
| 2026-05-08 12:24 | 24.67207 | -60.68454 | 38105 ft | 459 kts | 57° |
| 2026-05-08 12:25 | 24.70198 | -60.62252 | 38102 ft | 459 kts | 57° |
| 2026-05-08 12:25 | 24.73185 | -60.56051 | 38101 ft | 459 kts | 57° |
| 2026-05-08 12:26 | 24.76170 | -60.49846 | 38098 ft | 459 kts | 57° |
| 2026-05-08 12:26 | 24.79150 | -60.43644 | 38102 ft | 459 kts | 57° |
| 2026-05-08 12:27 | 24.82128 | -60.37437 | 38100 ft | 458 kts | 57° |
| 2026-05-08 12:27 | 24.85101 | -60.31233 | 38105 ft | 458 kts | 57° |
| 2026-05-08 12:28 | 24.88075 | -60.25018 | 38094 ft | 459 kts | 57° |
| 2026-05-08 12:28 | 24.91025 | -60.18843 | 38094 ft | 459 kts | 57° |
| 2026-05-08 12:29 | 24.93994 | -60.12622 | 38099 ft | 459 kts | 57° |
| 2026-05-08 12:29 | 24.96962 | -60.06397 | 38099 ft | 459 kts | 57° |
| 2026-05-08 12:30 | 25.00083 | -60.00298 | 38097 ft | 454 kts | 51° |
| 2026-05-08 12:30 | 25.03993 | -59.94900 | 38096 ft | 449 kts | 44° |
| 2026-05-08 12:31 | 25.08077 | -59.89678 | 38092 ft | 450 kts | 45° |
| 2026-05-08 12:31 | 25.12160 | -59.84439 | 38101 ft | 450 kts | 44° |
| 2026-05-08 12:32 | 25.16245 | -59.79205 | 38101 ft | 450 kts | 44° |
| 2026-05-08 12:32 | 25.20335 | -59.73963 | 38101 ft | 450 kts | 44° |
| 2026-05-08 12:33 | 25.24420 | -59.68722 | 38101 ft | 450 kts | 44° |
| 2026-05-08 12:33 | 25.28505 | -59.63475 | 38100 ft | 451 kts | 44° |
| 2026-05-08 12:34 | 25.32592 | -59.58220 | 38101 ft | 451 kts | 44° |
| 2026-05-08 12:34 | 25.36681 | -59.52955 | 38095 ft | 451 kts | 44° |
| 2026-05-08 12:35 | 25.40763 | -59.47693 | 38101 ft | 451 kts | 44° |
| 2026-05-08 12:35 | 25.44843 | -59.42425 | 38106 ft | 451 kts | 44° |
| 2026-05-08 12:36 | 25.48921 | -59.37152 | 38101 ft | 451 kts | 44° |
| 2026-05-08 12:36 | 25.53005 | -59.31867 | 38098 ft | 452 kts | 44° |
| 2026-05-08 12:37 | 25.57084 | -59.26581 | 38103 ft | 451 kts | 44° |
| 2026-05-08 12:37 | 25.61162 | -59.21291 | 38102 ft | 451 kts | 44° |
| 2026-05-08 12:38 | 25.65236 | -59.15999 | 38103 ft | 451 kts | 44° |
| 2026-05-08 12:38 | 25.69310 | -59.10702 | 38098 ft | 452 kts | 44° |
| 2026-05-08 12:39 | 25.73356 | -59.05435 | 38102 ft | 452 kts | 44° |
| 2026-05-08 12:39 | 25.77430 | -59.00126 | 38106 ft | 452 kts | 44° |
| 2026-05-08 12:40 | 25.81499 | -58.94815 | 38103 ft | 452 kts | 44° |
| 2026-05-08 12:40 | 25.85569 | -58.89499 | 38102 ft | 452 kts | 44° |
| 2026-05-08 12:41 | 25.89633 | -58.84185 | 38102 ft | 452 kts | 44° |
| 2026-05-08 12:41 | 25.93699 | -58.78861 | 38102 ft | 452 kts | 44° |
| 2026-05-08 12:42 | 25.97766 | -58.73530 | 38099 ft | 452 kts | 44° |
| 2026-05-08 12:42 | 26.01830 | -58.68196 | 38100 ft | 452 kts | 44° |
| 2026-05-08 12:43 | 26.05894 | -58.62856 | 38103 ft | 452 kts | 44° |
| 2026-05-08 12:43 | 26.09955 | -58.57513 | 38101 ft | 452 kts | 45° |
| 2026-05-08 12:44 | 26.14017 | -58.52163 | 38097 ft | 453 kts | 45° |
| 2026-05-08 12:44 | 26.18081 | -58.46804 | 38110 ft | 453 kts | 45° |
| 2026-05-08 12:45 | 26.22144 | -58.41441 | 38110 ft | 453 kts | 45° |
| 2026-05-08 12:45 | 26.26203 | -58.36075 | 38105 ft | 453 kts | 45° |
| 2026-05-08 12:46 | 26.30263 | -58.30703 | 38085 ft | 453 kts | 45° |
| 2026-05-08 12:46 | 26.34321 | -58.25326 | 38086 ft | 454 kts | 45° |
| 2026-05-08 12:47 | 26.38377 | -58.19946 | 38099 ft | 454 kts | 45° |
| 2026-05-08 12:47 | 26.42407 | -58.14594 | 38102 ft | 453 kts | 45° |
| 2026-05-08 12:48 | 26.46487 | -58.09169 | 38104 ft | 453 kts | 45° |
| 2026-05-08 12:48 | 26.50540 | -58.03773 | 38101 ft | 454 kts | 45° |
| 2026-05-08 12:49 | 26.54567 | -57.98405 | 38106 ft | 454 kts | 45° |
| 2026-05-08 12:49 | 26.58621 | -57.92995 | 38108 ft | 454 kts | 45° |
| 2026-05-08 12:50 | 26.62671 | -57.87583 | 38111 ft | 454 kts | 45° |
| 2026-05-08 12:50 | 26.66720 | -57.82167 | 38116 ft | 454 kts | 45° |
| 2026-05-08 12:51 | 26.72784 | -57.74043 | 38111 ft | 454 kts | 45° |
| 2026-05-08 12:52 | 26.76823 | -57.68623 | 38114 ft | 453 kts | 45° |
| 2026-05-08 12:52 | 26.82864 | -57.60502 | 38108 ft | 450 kts | 45° |
| 2026-05-08 12:53 | 26.86878 | -57.55102 | 38104 ft | 452 kts | 45° |
| 2026-05-08 12:53 | 26.90904 | -57.49677 | 38109 ft | 452 kts | 45° |
| 2026-05-08 12:54 | 26.94923 | -57.44254 | 38110 ft | 452 kts | 45° |
| 2026-05-08 12:54 | 26.98941 | -57.38826 | 38107 ft | 452 kts | 45° |
| 2026-05-08 12:55 | 27.02956 | -57.33394 | 38110 ft | 452 kts | 45° |
| 2026-05-08 12:55 | 27.06970 | -57.27960 | 38110 ft | 452 kts | 45° |
| 2026-05-08 12:56 | 27.10985 | -57.22516 | 38108 ft | 453 kts | 45° |
| 2026-05-08 12:56 | 27.14997 | -57.17069 | 38108 ft | 453 kts | 45° |
| 2026-05-08 12:57 | 27.19009 | -57.11616 | 38109 ft | 453 kts | 45° |
| 2026-05-08 12:57 | 27.23002 | -57.06178 | 38107 ft | 450 kts | 44° |
| 2026-05-08 12:58 | 27.26968 | -57.00777 | 38103 ft | 453 kts | 45° |
| 2026-05-08 12:58 | 27.30974 | -56.95313 | 38109 ft | 452 kts | 45° |
| 2026-05-08 12:59 | 27.34973 | -56.89849 | 38106 ft | 453 kts | 45° |
| 2026-05-08 12:59 | 27.38973 | -56.84378 | 38109 ft | 452 kts | 45° |
| 2026-05-08 13:00 | 27.42946 | -56.78930 | 38112 ft | 449 kts | 44° |
| 2026-05-08 13:00 | 27.46932 | -56.73470 | 38113 ft | 452 kts | 44° |
| 2026-05-08 13:01 | 27.50917 | -56.68000 | 38109 ft | 452 kts | 45° |
| 2026-05-08 13:01 | 27.54902 | -56.62522 | 38109 ft | 452 kts | 45° |
| 2026-05-08 13:02 | 27.58881 | -56.57044 | 38126 ft | 452 kts | 45° |
| 2026-05-08 13:02 | 27.62838 | -56.51587 | 38124 ft | 449 kts | 44° |
| 2026-05-08 13:03 | 27.66806 | -56.46115 | 38112 ft | 451 kts | 44° |
| 2026-05-08 13:03 | 27.70769 | -56.40640 | 38105 ft | 450 kts | 44° |
| 2026-05-08 13:04 | 27.74703 | -56.35198 | 38105 ft | 450 kts | 45° |
| 2026-05-08 13:04 | 27.78660 | -56.29717 | 38122 ft | 450 kts | 44° |
| 2026-05-08 13:05 | 27.82611 | -56.24236 | 38105 ft | 449 kts | 44° |
| 2026-05-08 13:05 | 27.86555 | -56.18760 | 38108 ft | 449 kts | 44° |
| 2026-05-08 13:06 | 27.90498 | -56.13277 | 38108 ft | 450 kts | 45° |
| 2026-05-08 13:06 | 27.94442 | -56.07786 | 38107 ft | 450 kts | 45° |
| 2026-05-08 13:07 | 27.98385 | -56.02291 | 38108 ft | 450 kts | 45° |
| 2026-05-08 13:07 | 28.02330 | -55.96784 | 38109 ft | 450 kts | 45° |
| 2026-05-08 13:08 | 28.06273 | -55.91273 | 38106 ft | 451 kts | 45° |
| 2026-05-08 13:08 | 28.10218 | -55.85752 | 38107 ft | 451 kts | 45° |
| 2026-05-08 13:09 | 28.13494 | -55.81162 | 38109 ft | 451 kts | 45° |
| 2026-05-08 13:09 | 28.17438 | -55.75629 | 38117 ft | 451 kts | 45° |
| 2026-05-08 13:10 | 28.21378 | -55.70095 | 38118 ft | 451 kts | 45° |
| 2026-05-08 13:10 | 28.25313 | -55.64560 | 38114 ft | 451 kts | 45° |
| 2026-05-08 13:11 | 28.29245 | -55.59024 | 38109 ft | 451 kts | 45° |
| 2026-05-08 13:11 | 28.33174 | -55.53484 | 38107 ft | 451 kts | 45° |
| 2026-05-08 13:12 | 28.37085 | -55.47959 | 38107 ft | 447 kts | 45° |
| 2026-05-08 13:12 | 28.40983 | -55.42449 | 38110 ft | 448 kts | 45° |
| 2026-05-08 13:13 | 28.44885 | -55.36926 | 38108 ft | 448 kts | 45° |
| 2026-05-08 13:13 | 28.48782 | -55.31402 | 38107 ft | 448 kts | 45° |
| 2026-05-08 13:14 | 28.52677 | -55.25873 | 38130 ft | 448 kts | 45° |
| 2026-05-08 13:14 | 28.56528 | -55.20393 | 38113 ft | 441 kts | 45° |
| 2026-05-08 13:15 | 28.60377 | -55.14923 | 38110 ft | 444 kts | 45° |
| 2026-05-08 13:15 | 28.64224 | -55.09442 | 38111 ft | 443 kts | 45° |
| 2026-05-08 13:16 | 28.68051 | -55.03983 | 38110 ft | 446 kts | 45° |
| 2026-05-08 13:16 | 28.71911 | -54.98466 | 38105 ft | 443 kts | 45° |
| 2026-05-08 13:17 | 28.75734 | -54.92994 | 38112 ft | 442 kts | 44° |
| 2026-05-08 13:17 | 28.79565 | -54.87511 | 38112 ft | 442 kts | 45° |
| 2026-05-08 13:18 | 28.83395 | -54.82017 | 38120 ft | 442 kts | 45° |
| 2026-05-08 13:18 | 28.87223 | -54.76519 | 38109 ft | 443 kts | 45° |
| 2026-05-08 13:19 | 28.91050 | -54.71015 | 38117 ft | 442 kts | 44° |
| 2026-05-08 13:19 | 28.94868 | -54.65518 | 38115 ft | 442 kts | 44° |
| 2026-05-08 13:20 | 28.98681 | -54.60020 | 38109 ft | 441 kts | 44° |
| 2026-05-08 13:20 | 29.02466 | -54.54555 | 38107 ft | 442 kts | 45° |
| 2026-05-08 13:21 | 29.06277 | -54.49046 | 38125 ft | 442 kts | 44° |
| 2026-05-08 13:21 | 29.10069 | -54.43553 | 38113 ft | 438 kts | 44° |
| 2026-05-08 13:22 | 29.13850 | -54.38074 | 38106 ft | 439 kts | 44° |
| 2026-05-08 13:22 | 29.17631 | -54.32588 | 38103 ft | 440 kts | 44° |
| 2026-05-08 13:23 | 29.21428 | -54.27072 | 38106 ft | 441 kts | 45° |
| 2026-05-08 13:23 | 29.25211 | -54.21560 | 38117 ft | 437 kts | 44° |
| 2026-05-08 13:24 | 29.28967 | -54.16087 | 38134 ft | 438 kts | 44° |
| 2026-05-08 13:24 | 29.32735 | -54.10593 | 38135 ft | 438 kts | 44° |
| 2026-05-08 13:25 | 29.36505 | -54.05085 | 38124 ft | 440 kts | 44° |
| 2026-05-08 13:25 | 29.40274 | -53.99569 | 38106 ft | 439 kts | 44° |
| 2026-05-08 13:26 | 29.44043 | -53.94046 | 38123 ft | 440 kts | 44° |
| 2026-05-08 13:26 | 29.47808 | -53.88523 | 38123 ft | 439 kts | 44° |
| 2026-05-08 13:27 | 29.51574 | -53.82992 | 38117 ft | 440 kts | 44° |
| 2026-05-08 13:27 | 29.55338 | -53.77454 | 38117 ft | 440 kts | 44° |
| 2026-05-08 13:28 | 29.59102 | -53.71909 | 38118 ft | 440 kts | 44° |
| 2026-05-08 13:28 | 29.62850 | -53.66378 | 38112 ft | 438 kts | 44° |
| 2026-05-08 13:29 | 29.66597 | -53.60847 | 38112 ft | 440 kts | 44° |
| 2026-05-08 13:29 | 29.70348 | -53.55299 | 38110 ft | 439 kts | 44° |
| 2026-05-08 13:30 | 29.74097 | -53.49746 | 38113 ft | 439 kts | 44° |
| 2026-05-08 13:30 | 29.77844 | -53.44189 | 38114 ft | 440 kts | 44° |
| 2026-05-08 13:31 | 29.81590 | -53.38626 | 38113 ft | 440 kts | 45° |
| 2026-05-08 13:31 | 29.85335 | -53.33056 | 38113 ft | 440 kts | 45° |
| 2026-05-08 13:32 | 29.89079 | -53.27480 | 38110 ft | 440 kts | 45° |
| 2026-05-08 13:32 | 29.92798 | -53.21934 | 38128 ft | 440 kts | 45° |
| 2026-05-08 13:33 | 29.96563 | -53.16310 | 38117 ft | 440 kts | 45° |
| 2026-05-08 13:33 | 30.00277 | -53.10757 | 38115 ft | 440 kts | 45° |
| 2026-05-08 13:34 | 30.04012 | -53.05164 | 38114 ft | 440 kts | 45° |
| 2026-05-08 13:34 | 30.07745 | -52.99567 | 38137 ft | 440 kts | 45° |
| 2026-05-08 13:35 | 30.11476 | -52.93963 | 38121 ft | 440 kts | 45° |
| 2026-05-08 13:35 | 30.15200 | -52.88363 | 38118 ft | 439 kts | 45° |
| 2026-05-08 13:36 | 30.18919 | -52.82764 | 38116 ft | 439 kts | 45° |
| 2026-05-08 13:36 | 30.22634 | -52.77162 | 38114 ft | 439 kts | 45° |
| 2026-05-08 13:37 | 30.26347 | -52.71553 | 38102 ft | 439 kts | 45° |
| 2026-05-08 13:37 | 30.30059 | -52.65942 | 38107 ft | 439 kts | 45° |
| 2026-05-08 13:38 | 30.33770 | -52.60323 | 38116 ft | 439 kts | 45° |
| 2026-05-08 13:38 | 30.37477 | -52.54702 | 38111 ft | 439 kts | 45° |
| 2026-05-08 13:39 | 30.41184 | -52.49074 | 38115 ft | 440 kts | 44° |
| 2026-05-08 13:39 | 30.44892 | -52.43435 | 38113 ft | 440 kts | 44° |
| 2026-05-08 13:40 | 30.48596 | -52.37794 | 38118 ft | 440 kts | 44° |
| 2026-05-08 13:40 | 30.52295 | -52.32153 | 38118 ft | 440 kts | 44° |
| 2026-05-08 13:41 | 30.55994 | -52.26501 | 38124 ft | 440 kts | 44° |
| 2026-05-08 13:41 | 30.59667 | -52.20885 | 38117 ft | 439 kts | 44° |
| 2026-05-08 13:42 | 30.63358 | -52.15233 | 38116 ft | 439 kts | 44° |
| 2026-05-08 13:42 | 30.67048 | -52.09574 | 38117 ft | 439 kts | 44° |
| 2026-05-08 13:43 | 30.70715 | -52.03942 | 38147 ft | 439 kts | 44° |
| 2026-05-08 13:43 | 30.74380 | -51.98301 | 38122 ft | 436 kts | 44° |
| 2026-05-08 13:44 | 30.78038 | -51.92670 | 38119 ft | 437 kts | 44° |
| 2026-05-08 13:44 | 30.81697 | -51.87028 | 38119 ft | 437 kts | 44° |
| 2026-05-08 13:45 | 30.85351 | -51.81383 | 38116 ft | 437 kts | 44° |
| 2026-05-08 13:45 | 30.88992 | -51.75747 | 38120 ft | 434 kts | 44° |
| 2026-05-08 13:46 | 30.92629 | -51.70117 | 38122 ft | 435 kts | 44° |
| 2026-05-08 13:46 | 30.96265 | -51.64478 | 38121 ft | 435 kts | 44° |
| 2026-05-08 13:47 | 30.99919 | -51.58801 | 38121 ft | 435 kts | 44° |
| 2026-05-08 13:47 | 31.03551 | -51.53154 | 38123 ft | 434 kts | 45° |
| 2026-05-08 13:48 | 31.07136 | -51.47565 | 38118 ft | 433 kts | 45° |
| 2026-05-08 13:48 | 31.10737 | -51.41944 | 38111 ft | 432 kts | 45° |
| 2026-05-08 13:49 | 31.14329 | -51.36332 | 38115 ft | 431 kts | 45° |
| 2026-05-08 13:49 | 31.17921 | -51.30717 | 38122 ft | 431 kts | 45° |
| 2026-05-08 13:50 | 31.21503 | -51.25101 | 38104 ft | 431 kts | 45° |
| 2026-05-08 13:50 | 31.25080 | -51.19486 | 38096 ft | 431 kts | 45° |
| 2026-05-08 13:51 | 31.28656 | -51.13867 | 38092 ft | 431 kts | 45° |
| 2026-05-08 13:51 | 31.32234 | -51.08237 | 38098 ft | 431 kts | 45° |
| 2026-05-08 13:52 | 31.35814 | -51.02595 | 38127 ft | 432 kts | 45° |
| 2026-05-08 13:52 | 31.39391 | -50.96948 | 38135 ft | 432 kts | 45° |
| 2026-05-08 13:53 | 31.42970 | -50.91292 | 38137 ft | 432 kts | 45° |
| 2026-05-08 13:53 | 31.46554 | -50.85623 | 38114 ft | 433 kts | 46° |
| 2026-05-08 13:54 | 31.50140 | -50.79940 | 38115 ft | 434 kts | 46° |
| 2026-05-08 13:54 | 31.53728 | -50.74242 | 38125 ft | 435 kts | 46° |
| 2026-05-08 13:55 | 31.57316 | -50.68537 | 38129 ft | 435 kts | 46° |
| 2026-05-08 13:56 | 31.62680 | -50.59998 | 38125 ft | 436 kts | 47° |
| 2026-05-08 13:56 | 31.66279 | -50.54256 | 38131 ft | 437 kts | 47° |
| 2026-05-08 13:57 | 31.69877 | -50.48506 | 38126 ft | 437 kts | 47° |
| 2026-05-08 13:57 | 31.72863 | -50.43729 | 38131 ft | 437 kts | 47° |
| 2026-05-08 13:58 | 31.76474 | -50.37956 | 38129 ft | 439 kts | 48° |
| 2026-05-08 13:58 | 31.80063 | -50.32200 | 38137 ft | 439 kts | 48° |
| 2026-05-08 13:59 | 31.83460 | -50.26744 | 38138 ft | 439 kts | 48° |
| 2026-05-08 13:59 | 31.87065 | -50.20947 | 38141 ft | 439 kts | 48° |
| 2026-05-08 14:00 | 31.90673 | -50.15142 | 38139 ft | 440 kts | 49° |
| 2026-05-08 14:00 | 31.94283 | -50.09317 | 38144 ft | 440 kts | 49° |
| 2026-05-08 14:01 | 31.97893 | -50.03486 | 38146 ft | 441 kts | 49° |
| 2026-05-08 14:01 | 32.01554 | -49.97713 | 38144 ft | 437 kts | 44° |
| 2026-05-08 14:02 | 32.05771 | -49.92569 | 38123 ft | 437 kts | 41° |
| 2026-05-08 14:02 | 32.10040 | -49.87458 | 38134 ft | 438 kts | 42° |
| 2026-05-08 14:03 | 32.14247 | -49.82258 | 38143 ft | 438 kts | 42° |
| 2026-05-08 14:03 | 32.18436 | -49.77030 | 38148 ft | 439 kts | 42° |
| 2026-05-08 14:04 | 32.22563 | -49.71874 | 38125 ft | 441 kts | 43° |
| 2026-05-08 14:04 | 32.26775 | -49.66601 | 38149 ft | 441 kts | 43° |
| 2026-05-08 14:05 | 32.30988 | -49.61321 | 38149 ft | 442 kts | 43° |
| 2026-05-08 14:05 | 32.35207 | -49.56025 | 38147 ft | 442 kts | 43° |
| 2026-05-08 14:06 | 32.39396 | -49.50764 | 38159 ft | 444 kts | 43° |
| 2026-05-08 14:06 | 32.43681 | -49.45373 | 38154 ft | 449 kts | 43° |
| 2026-05-08 14:07 | 32.47920 | -49.40019 | 38160 ft | 448 kts | 43° |
| 2026-05-08 14:07 | 32.52178 | -49.34636 | 38152 ft | 447 kts | 43° |
| 2026-05-08 14:08 | 32.56405 | -49.29287 | 38159 ft | 446 kts | 44° |
| 2026-05-08 14:08 | 32.60680 | -49.23875 | 38149 ft | 453 kts | 44° |
| 2026-05-08 14:09 | 32.64995 | -49.18395 | 38159 ft | 454 kts | 44° |
| 2026-05-08 14:09 | 32.69265 | -49.12961 | 38159 ft | 448 kts | 44° |
| 2026-05-08 14:10 | 32.73528 | -49.07539 | 38167 ft | 451 kts | 44° |
| 2026-05-08 14:10 | 32.77842 | -49.02042 | 38150 ft | 458 kts | 44° |
| 2026-05-08 14:11 | 32.82180 | -48.96498 | 38158 ft | 455 kts | 44° |
| 2026-05-08 14:11 | 32.86490 | -48.90985 | 38153 ft | 456 kts | 44° |
| 2026-05-08 14:12 | 32.90805 | -48.85458 | 38157 ft | 456 kts | 44° |
| 2026-05-08 14:12 | 32.95111 | -48.79935 | 38150 ft | 456 kts | 44° |
| 2026-05-08 14:13 | 32.99425 | -48.74391 | 38157 ft | 456 kts | 44° |
| 2026-05-08 14:13 | 33.03730 | -48.68851 | 38154 ft | 456 kts | 44° |
| 2026-05-08 14:14 | 33.08023 | -48.63317 | 38165 ft | 454 kts | 45° |
| 2026-05-08 14:14 | 33.12337 | -48.57750 | 38164 ft | 460 kts | 45° |
| 2026-05-08 14:15 | 33.16647 | -48.52176 | 38157 ft | 460 kts | 45° |
| 2026-05-08 14:15 | 33.20970 | -48.46576 | 38155 ft | 456 kts | 45° |
| 2026-05-08 14:16 | 33.25276 | -48.40994 | 38167 ft | 459 kts | 45° |
| 2026-05-08 14:16 | 33.29619 | -48.35355 | 38177 ft | 462 kts | 45° |
| 2026-05-08 14:17 | 33.33962 | -48.29701 | 38183 ft | 459 kts | 45° |
| 2026-05-08 14:17 | 33.38266 | -48.24092 | 38182 ft | 458 kts | 45° |
| 2026-05-08 14:18 | 33.42593 | -48.18448 | 38176 ft | 463 kts | 45° |
| 2026-05-08 14:18 | 33.46939 | -48.12762 | 38159 ft | 460 kts | 45° |
| 2026-05-08 14:19 | 33.51246 | -48.07126 | 38155 ft | 459 kts | 45° |
| 2026-05-08 14:19 | 33.55560 | -48.01467 | 38158 ft | 460 kts | 45° |
| 2026-05-08 14:20 | 33.59894 | -47.95773 | 38185 ft | 463 kts | 46° |
| 2026-05-08 14:20 | 33.64241 | -47.90049 | 38199 ft | 464 kts | 45° |
| 2026-05-08 14:21 | 33.68580 | -47.84329 | 38196 ft | 463 kts | 46° |
| 2026-05-08 14:21 | 33.72917 | -47.78613 | 38194 ft | 463 kts | 46° |
| 2026-05-08 14:22 | 33.77272 | -47.72864 | 38168 ft | 467 kts | 46° |
| 2026-05-08 14:22 | 33.81645 | -47.67078 | 38167 ft | 468 kts | 46° |
| 2026-05-08 14:23 | 33.85990 | -47.61307 | 38171 ft | 461 kts | 46° |
| 2026-05-08 14:23 | 33.90320 | -47.55557 | 38174 ft | 467 kts | 46° |
| 2026-05-08 14:24 | 33.94700 | -47.49730 | 38200 ft | 471 kts | 46° |
| 2026-05-08 14:24 | 33.99054 | -47.43921 | 38193 ft | 462 kts | 46° |
| 2026-05-08 14:25 | 34.00131 | -47.42483 | 38178 ft | 463 kts | 46° |
| 2026-05-08 14:25 | 34.04460 | -47.36708 | 38180 ft | 467 kts | 47° |
| 2026-05-08 14:26 | 34.08829 | -47.30864 | 38178 ft | 469 kts | 47° |
| 2026-05-08 14:26 | 34.13026 | -47.25242 | 38197 ft | 465 kts | 47° |
| 2026-05-08 14:27 | 34.17362 | -47.19417 | 38210 ft | 467 kts | 47° |
| 2026-05-08 14:27 | 34.21710 | -47.13569 | 38211 ft | 470 kts | 47° |
| 2026-05-08 14:28 | 34.26102 | -47.07660 | 38215 ft | 473 kts | 47° |
| 2026-05-08 14:28 | 34.30496 | -47.01735 | 38226 ft | 473 kts | 47° |
| 2026-05-08 14:29 | 34.34854 | -46.95844 | 38214 ft | 468 kts | 47° |
| 2026-05-08 14:29 | 34.39223 | -46.89934 | 38191 ft | 474 kts | 47° |
| 2026-05-08 14:30 | 34.43618 | -46.83975 | 38190 ft | 475 kts | 47° |
| 2026-05-08 14:30 | 34.47974 | -46.78054 | 38211 ft | 468 kts | 47° |
| 2026-05-08 14:31 | 34.52316 | -46.72147 | 38217 ft | 470 kts | 47° |
| 2026-05-08 14:31 | 34.56657 | -46.66232 | 38212 ft | 468 kts | 47° |
| 2026-05-08 14:32 | 34.63105 | -46.57427 | 38204 ft | 466 kts | 47° |
| 2026-05-08 14:32 | 34.67431 | -46.51510 | 38206 ft | 471 kts | 47° |
| 2026-05-08 14:33 | 34.71750 | -46.45584 | 38206 ft | 467 kts | 47° |
| 2026-05-08 14:33 | 34.76061 | -46.39666 | 38215 ft | 468 kts | 47° |
| 2026-05-08 14:34 | 34.80381 | -46.33724 | 38220 ft | 470 kts | 47° |
| 2026-05-08 14:34 | 34.84710 | -46.27763 | 38225 ft | 470 kts | 47° |
| 2026-05-08 14:35 | 34.88096 | -46.23090 | 38225 ft | 469 kts | 47° |
| 2026-05-08 14:35 | 34.88795 | -46.22123 | 38224 ft | 469 kts | 47° |
| 2026-05-08 14:37 | 34.89030 | -46.21798 | 38223 ft | 469 kts | 47° |
| 2026-05-08 14:37 | 34.89104 | -46.21696 | 38232 ft | 469 kts | 47° |
| 2026-05-08 14:38 | 34.93050 | -46.16240 | 38237 ft | 468 kts | 47° |
| 2026-05-08 14:38 | 34.97360 | -46.10271 | 38230 ft | 469 kts | 47° |
| 2026-05-08 14:39 | 35.01672 | -46.04289 | 38228 ft | 470 kts | 47° |
| 2026-05-08 14:39 | 35.05981 | -45.98301 | 38212 ft | 470 kts | 47° |
| 2026-05-08 14:40 | 35.10297 | -45.92296 | 38232 ft | 472 kts | 47° |
| 2026-05-08 14:40 | 35.14638 | -45.86242 | 38232 ft | 474 kts | 47° |
| 2026-05-08 14:41 | 35.18977 | -45.80182 | 38231 ft | 474 kts | 47° |
| 2026-05-08 14:41 | 35.23315 | -45.74109 | 38241 ft | 475 kts | 47° |
| 2026-05-08 14:42 | 35.27666 | -45.68007 | 38233 ft | 475 kts | 47° |
| 2026-05-08 14:42 | 35.31970 | -45.61955 | 38235 ft | 475 kts | 47° |
| 2026-05-08 14:43 | 35.36311 | -45.55843 | 38241 ft | 476 kts | 48° |
| 2026-05-08 14:43 | 35.40673 | -45.49697 | 38235 ft | 478 kts | 47° |
| 2026-05-08 14:44 | 35.45048 | -45.43525 | 38251 ft | 480 kts | 48° |
| 2026-05-08 14:44 | 35.48703 | -45.38358 | 38238 ft | 478 kts | 48° |
| 2026-05-08 14:45 | 35.53761 | -45.31192 | 38265 ft | 477 kts | 48° |
| 2026-05-08 14:45 | 35.57403 | -45.26021 | 38269 ft | 477 kts | 48° |
| 2026-05-08 14:46 | 35.61724 | -45.19872 | 38259 ft | 480 kts | 48° |
| 2026-05-08 14:46 | 35.66098 | -45.13647 | 38273 ft | 481 kts | 48° |
| 2026-05-08 14:47 | 35.70463 | -45.07417 | 38281 ft | 481 kts | 48° |
| 2026-05-08 14:47 | 35.74842 | -45.01157 | 38260 ft | 483 kts | 48° |
| 2026-05-08 14:48 | 35.79214 | -44.94895 | 38254 ft | 482 kts | 48° |
| 2026-05-08 14:48 | 35.83589 | -44.88614 | 38248 ft | 484 kts | 48° |
| 2026-05-08 14:49 | 35.87968 | -44.82319 | 38258 ft | 483 kts | 48° |
| 2026-05-08 14:49 | 35.92337 | -44.76029 | 38272 ft | 484 kts | 48° |
| 2026-05-08 14:50 | 35.96713 | -44.69715 | 38282 ft | 483 kts | 48° |
| 2026-05-08 14:50 | 36.01076 | -44.63408 | 38290 ft | 483 kts | 48° |
| 2026-05-08 14:51 | 36.05454 | -44.57067 | 38275 ft | 485 kts | 48° |
| 2026-05-08 14:51 | 36.09822 | -44.50729 | 38276 ft | 484 kts | 48° |
| 2026-05-08 14:52 | 36.16385 | -44.41184 | 38287 ft | 488 kts | 49° |
| 2026-05-08 14:53 | 36.20778 | -44.34778 | 38278 ft | 486 kts | 49° |
| 2026-05-08 14:53 | 36.25149 | -44.28392 | 38282 ft | 488 kts | 49° |
| 2026-05-08 14:54 | 36.29544 | -44.21961 | 38282 ft | 488 kts | 49° |
| 2026-05-08 14:54 | 36.33928 | -44.15534 | 38284 ft | 488 kts | 49° |
| 2026-05-08 14:55 | 36.38292 | -44.09123 | 38292 ft | 491 kts | 49° |
| 2026-05-08 14:55 | 36.42517 | -44.02906 | 38296 ft | 491 kts | 49° |
| 2026-05-08 14:56 | 36.46920 | -43.96413 | 38300 ft | 492 kts | 49° |
| 2026-05-08 14:56 | 36.51323 | -43.89907 | 38301 ft | 492 kts | 49° |
| 2026-05-08 14:57 | 36.55704 | -43.83421 | 38294 ft | 488 kts | 49° |
| 2026-05-08 14:57 | 36.60081 | -43.76929 | 38290 ft | 492 kts | 48° |
| 2026-05-08 14:58 | 36.64468 | -43.70411 | 38287 ft | 491 kts | 48° |
| 2026-05-08 14:58 | 36.68848 | -43.63889 | 38307 ft | 491 kts | 48° |
| 2026-05-08 14:59 | 36.73242 | -43.57335 | 38311 ft | 493 kts | 48° |
| 2026-05-08 14:59 | 36.79842 | -43.47464 | 38318 ft | 493 kts | 48° |
| 2026-05-08 15:00 | 36.84242 | -43.40868 | 38307 ft | 495 kts | 48° |
| 2026-05-08 15:00 | 36.88642 | -43.34259 | 38308 ft | 495 kts | 48° |
| 2026-05-08 15:01 | 36.93026 | -43.27658 | 38303 ft | 487 kts | 48° |
| 2026-05-08 15:01 | 36.95155 | -43.24445 | 38307 ft | 473 kts | 48° |
| 2026-05-08 15:01 | 36.97225 | -43.21318 | 38306 ft | 460 kts | 48° |
| 2026-05-08 15:02 | 36.99236 | -43.18279 | 38306 ft | 447 kts | 48° |
| 2026-05-08 15:02 | 37.01189 | -43.15326 | 38305 ft | 434 kts | 48° |
| 2026-05-08 15:02 | 37.03082 | -43.12460 | 38314 ft | 421 kts | 48° |
| 2026-05-08 15:02 | 37.04924 | -43.09670 | 38177 ft | 412 kts | 48° |
| 2026-05-08 15:03 | 37.06749 | -43.06907 | 37700 ft | 412 kts | 48° |
| 2026-05-08 15:03 | 37.08558 | -43.04173 | 37137 ft | 414 kts | 48° |
| 2026-05-08 15:03 | 37.10396 | -43.01399 | 36688 ft | 414 kts | 48° |
| 2026-05-08 15:03 | 37.12224 | -42.98643 | 36410 ft | 408 kts | 48° |
| 2026-05-08 15:04 | 37.14030 | -42.95924 | 36163 ft | 402 kts | 48° |
| 2026-05-08 15:04 | 37.15807 | -42.93246 | 35883 ft | 397 kts | 48° |
| 2026-05-08 15:04 | 37.17566 | -42.90598 | 35554 ft | 394 kts | 48° |
| 2026-05-08 15:04 | 37.19315 | -42.87969 | 35208 ft | 391 kts | 48° |
| 2026-05-08 15:05 | 37.21052 | -42.85359 | 34850 ft | 389 kts | 48° |
| 2026-05-08 15:05 | 37.22781 | -42.82767 | 34514 ft | 385 kts | 48° |
| 2026-05-08 15:05 | 37.24495 | -42.80199 | 34180 ft | 382 kts | 48° |
| 2026-05-08 15:05 | 37.26194 | -42.77657 | 33844 ft | 378 kts | 47° |
| 2026-05-08 15:06 | 37.27874 | -42.75143 | 33498 ft | 374 kts | 47° |
| 2026-05-08 15:06 | 37.29536 | -42.72656 | 33140 ft | 370 kts | 47° |
| 2026-05-08 15:06 | 37.31184 | -42.70193 | 32807 ft | 366 kts | 47° |
| 2026-05-08 15:06 | 37.32673 | -42.67968 | 32480 ft | 363 kts | 47° |
| 2026-05-08 15:07 | 37.34295 | -42.65547 | 32138 ft | 360 kts | 47° |
| 2026-05-08 15:07 | 37.35899 | -42.63154 | 31793 ft | 356 kts | 47° |
| 2026-05-08 15:07 | 37.37488 | -42.60783 | 31481 ft | 353 kts | 47° |
| 2026-05-08 15:07 | 37.39063 | -42.58438 | 31154 ft | 349 kts | 47° |
| 2026-05-08 15:08 | 37.40621 | -42.56116 | 30822 ft | 346 kts | 47° |
| 2026-05-08 15:08 | 37.41645 | -42.54592 | 30605 ft | 344 kts | 47° |
| 2026-05-08 15:08 | 37.43699 | -42.51539 | 30122 ft | 340 kts | 47° |
| 2026-05-08 15:08 | 37.45252 | -42.49237 | 29975 ft | 347 kts | 47° |
| 2026-05-08 15:09 | 37.46727 | -42.47043 | 31081 ft | 317 kts | 47° |
| 2026-05-08 15:09 | 37.48155 | -42.44915 | 31222 ft | 323 kts | 47° |
| 2026-05-08 15:09 | 37.49650 | -42.42700 | 30998 ft | 341 kts | 47° |
| 2026-05-08 15:09 | 37.51223 | -42.40383 | 30928 ft | 353 kts | 46° |
| 2026-05-08 15:10 | 37.52822 | -42.38036 | 31192 ft | 353 kts | 46° |
| 2026-05-08 15:10 | 37.54412 | -42.35704 | 31563 ft | 350 kts | 46° |
| 2026-05-08 15:10 | 37.55995 | -42.33384 | 31862 ft | 349 kts | 46° |
| 2026-05-08 15:10 | 37.57589 | -42.31054 | 32059 ft | 352 kts | 46° |
| 2026-05-08 15:11 | 37.59200 | -42.28703 | 32213 ft | 356 kts | 46° |
| 2026-05-08 15:11 | 37.60827 | -42.26335 | 32401 ft | 359 kts | 46° |
| 2026-05-08 15:11 | 37.62465 | -42.23955 | 32607 ft | 360 kts | 46° |
| 2026-05-08 15:11 | 37.64114 | -42.21563 | 32835 ft | 362 kts | 46° |
| 2026-05-08 15:12 | 37.65544 | -42.18918 | 32913 ft | 370 kts | 59° |
| 2026-05-08 15:12 | 37.66844 | -42.16074 | 32928 ft | 376 kts | 55° |
| 2026-05-08 15:12 | 37.69729 | -42.10369 | 32832 ft | 397 kts | 53° |
| 2026-05-08 15:13 | 37.71382 | -42.07513 | 32746 ft | 408 kts | 51° |
| 2026-05-08 15:13 | 37.73151 | -42.04648 | 32632 ft | 420 kts | 49° |
| 2026-05-08 15:13 | 37.75008 | -42.01730 | 32563 ft | 432 kts | 49° |
| 2026-05-08 15:13 | 37.76929 | -41.98735 | 32466 ft | 444 kts | 49° |
| 2026-05-08 15:14 | 37.80866 | -41.92586 | 32609 ft | 459 kts | 49° |
| 2026-05-08 15:14 | 37.84939 | -41.86192 | 32792 ft | 473 kts | 49° |
| 2026-05-08 15:15 | 37.89120 | -41.79612 | 32913 ft | 486 kts | 50° |
| 2026-05-08 15:15 | 37.93352 | -41.72934 | 33134 ft | 491 kts | 50° |
| 2026-05-08 15:16 | 37.95487 | -41.69562 | 33344 ft | 490 kts | 50° |
| 2026-05-08 15:16 | 37.97616 | -41.66198 | 33587 ft | 489 kts | 50° |
| 2026-05-08 15:16 | 37.99745 | -41.62831 | 33795 ft | 489 kts | 50° |
| 2026-05-08 15:16 | 38.01868 | -41.59469 | 33997 ft | 488 kts | 50° |
| 2026-05-08 15:17 | 38.03988 | -41.56107 | 34201 ft | 488 kts | 50° |
| 2026-05-08 15:17 | 38.06106 | -41.52744 | 34394 ft | 487 kts | 50° |
| 2026-05-08 15:17 | 38.10357 | -41.45987 | 34570 ft | 492 kts | 50° |
| 2026-05-08 15:18 | 38.12492 | -41.42585 | 34718 ft | 492 kts | 50° |
| 2026-05-08 15:18 | 38.14624 | -41.39183 | 34866 ft | 492 kts | 50° |
| 2026-05-08 15:18 | 38.16753 | -41.35784 | 35013 ft | 493 kts | 50° |
| 2026-05-08 15:18 | 38.18892 | -41.32365 | 35129 ft | 494 kts | 50° |
| 2026-05-08 15:19 | 38.23182 | -41.25499 | 35355 ft | 496 kts | 50° |
| 2026-05-08 15:19 | 38.25328 | -41.22059 | 35494 ft | 496 kts | 50° |
| 2026-05-08 15:19 | 38.27473 | -41.18616 | 35657 ft | 497 kts | 50° |
| 2026-05-08 15:20 | 38.29619 | -41.15169 | 35799 ft | 497 kts | 50° |
| 2026-05-08 15:20 | 38.31763 | -41.11718 | 35935 ft | 497 kts | 50° |
| 2026-05-08 15:20 | 38.33911 | -41.08258 | 36087 ft | 497 kts | 49° |
| 2026-05-08 15:20 | 38.36055 | -41.04803 | 36230 ft | 498 kts | 49° |
| 2026-05-08 15:21 | 38.38202 | -41.01338 | 36377 ft | 498 kts | 49° |
| 2026-05-08 15:21 | 38.40346 | -40.97877 | 36518 ft | 498 kts | 49° |
| 2026-05-08 15:21 | 38.42490 | -40.94410 | 36673 ft | 498 kts | 49° |
| 2026-05-08 15:21 | 38.44630 | -40.90944 | 36824 ft | 497 kts | 49° |
| 2026-05-08 15:22 | 38.46769 | -40.87478 | 36942 ft | 498 kts | 49° |
| 2026-05-08 15:22 | 38.48910 | -40.84005 | 37100 ft | 498 kts | 49° |
| 2026-05-08 15:22 | 38.51051 | -40.80530 | 37222 ft | 498 kts | 49° |
| 2026-05-08 15:22 | 38.53188 | -40.77057 | 37362 ft | 498 kts | 49° |
| 2026-05-08 15:23 | 38.55324 | -40.73581 | 37525 ft | 497 kts | 49° |
| 2026-05-08 15:23 | 38.57430 | -40.70149 | 37665 ft | 497 kts | 49° |
| 2026-05-08 15:23 | 38.59594 | -40.66621 | 37795 ft | 497 kts | 49° |
| 2026-05-08 15:23 | 38.61696 | -40.63189 | 37919 ft | 497 kts | 49° |
| 2026-05-08 15:24 | 38.63829 | -40.59705 | 38048 ft | 497 kts | 49° |
| 2026-05-08 15:24 | 38.65960 | -40.56217 | 38208 ft | 497 kts | 49° |
| 2026-05-08 15:24 | 38.68082 | -40.52742 | 38343 ft | 497 kts | 49° |
| 2026-05-08 15:24 | 38.70214 | -40.49248 | 38351 ft | 498 kts | 49° |
| 2026-05-08 15:25 | 38.74494 | -40.42229 | 38348 ft | 501 kts | 49° |
| 2026-05-08 15:25 | 38.78734 | -40.35256 | 38350 ft | 487 kts | 49° |
| 2026-05-08 15:26 | 38.82917 | -40.28371 | 38353 ft | 493 kts | 49° |
| 2026-05-08 15:26 | 38.87140 | -40.21405 | 38352 ft | 495 kts | 49° |
| 2026-05-08 15:27 | 38.91352 | -40.14438 | 38352 ft | 493 kts | 49° |
| 2026-05-08 15:27 | 38.95544 | -40.07489 | 38349 ft | 490 kts | 50° |
| 2026-05-08 15:28 | 38.99644 | -40.00502 | 38349 ft | 491 kts | 53° |
| 2026-05-08 15:28 | 39.03241 | -39.93040 | 38349 ft | 490 kts | 57° |
| 2026-05-08 15:29 | 39.06737 | -39.85517 | 38348 ft | 490 kts | 56° |
| 2026-05-08 15:29 | 39.10265 | -39.78008 | 38347 ft | 490 kts | 56° |
| 2026-05-08 15:30 | 39.13766 | -39.70516 | 38350 ft | 485 kts | 56° |
| 2026-05-08 15:30 | 39.17243 | -39.63050 | 38348 ft | 487 kts | 57° |
| 2026-05-08 15:31 | 39.20721 | -39.55564 | 38341 ft | 487 kts | 57° |
| 2026-05-08 15:31 | 39.24172 | -39.48116 | 38353 ft | 479 kts | 57° |
| 2026-05-08 15:32 | 39.27008 | -39.41976 | 38361 ft | 480 kts | 57° |
| 2026-05-08 15:32 | 39.30428 | -39.34553 | 38362 ft | 481 kts | 57° |
| 2026-05-08 15:33 | 39.33836 | -39.27134 | 38340 ft | 479 kts | 57° |
| 2026-05-08 15:33 | 39.37225 | -39.19743 | 38331 ft | 479 kts | 57° |
| 2026-05-08 15:34 | 39.40616 | -39.12328 | 38335 ft | 479 kts | 57° |
| 2026-05-08 15:34 | 39.44000 | -39.04910 | 38335 ft | 477 kts | 57° |
| 2026-05-08 15:35 | 39.47360 | -38.97527 | 38346 ft | 476 kts | 57° |
| 2026-05-08 15:35 | 39.50720 | -38.90130 | 38343 ft | 477 kts | 57° |
| 2026-05-08 15:36 | 39.54074 | -38.82726 | 38352 ft | 477 kts | 57° |
| 2026-05-08 15:36 | 39.57423 | -38.75317 | 38344 ft | 476 kts | 57° |
| 2026-05-08 15:37 | 39.60768 | -38.67899 | 38342 ft | 477 kts | 57° |
| 2026-05-08 15:37 | 39.64108 | -38.60473 | 38356 ft | 477 kts | 57° |
| 2026-05-08 15:38 | 39.67449 | -38.53027 | 38344 ft | 477 kts | 57° |
| 2026-05-08 15:38 | 39.70786 | -38.45574 | 38344 ft | 478 kts | 57° |
| 2026-05-08 15:39 | 39.74097 | -38.38161 | 38341 ft | 478 kts | 57° |
| 2026-05-08 15:39 | 39.77429 | -38.30680 | 38342 ft | 478 kts | 57° |
| 2026-05-08 15:40 | 39.80760 | -38.23187 | 38350 ft | 478 kts | 57° |
| 2026-05-08 15:40 | 39.84087 | -38.15684 | 38350 ft | 479 kts | 57° |
| 2026-05-08 15:41 | 39.87410 | -38.08173 | 38336 ft | 479 kts | 57° |
| 2026-05-08 15:41 | 39.90728 | -38.00652 | 38335 ft | 479 kts | 57° |
| 2026-05-08 15:42 | 39.94042 | -37.93125 | 38348 ft | 479 kts | 57° |
| 2026-05-08 15:42 | 39.97351 | -37.85586 | 38345 ft | 479 kts | 57° |
| 2026-05-08 15:43 | 40.00659 | -37.78036 | 38346 ft | 479 kts | 57° |
| 2026-05-08 15:43 | 40.03963 | -37.70475 | 38345 ft | 479 kts | 57° |
| 2026-05-08 15:44 | 40.07261 | -37.62908 | 38343 ft | 480 kts | 57° |
| 2026-05-08 15:44 | 40.10557 | -37.55327 | 38345 ft | 480 kts | 57° |
| 2026-05-08 15:45 | 40.13845 | -37.47746 | 38346 ft | 480 kts | 57° |
| 2026-05-08 15:45 | 40.17133 | -37.40148 | 38351 ft | 480 kts | 57° |
| 2026-05-08 15:46 | 40.20415 | -37.32542 | 38345 ft | 481 kts | 57° |
| 2026-05-08 15:46 | 40.23698 | -37.24918 | 38346 ft | 481 kts | 57° |
| 2026-05-08 15:47 | 40.26976 | -37.17286 | 38362 ft | 481 kts | 57° |
| 2026-05-08 15:47 | 40.30251 | -37.09639 | 38352 ft | 481 kts | 57° |
| 2026-05-08 15:48 | 40.35134 | -36.98206 | 38342 ft | 481 kts | 57° |
| 2026-05-08 15:49 | 40.38397 | -36.90540 | 38340 ft | 482 kts | 57° |
| 2026-05-08 15:49 | 40.41661 | -36.82855 | 38344 ft | 482 kts | 57° |
| 2026-05-08 15:50 | 40.44917 | -36.75169 | 38346 ft | 482 kts | 57° |
| 2026-05-08 15:50 | 40.48168 | -36.67473 | 38359 ft | 482 kts | 57° |
| 2026-05-08 15:51 | 40.51416 | -36.59765 | 38343 ft | 482 kts | 57° |
| 2026-05-08 15:51 | 40.54660 | -36.52047 | 38339 ft | 482 kts | 57° |
| 2026-05-08 15:52 | 40.57902 | -36.44317 | 38339 ft | 482 kts | 57° |
| 2026-05-08 15:52 | 40.61134 | -36.36590 | 38345 ft | 482 kts | 57° |
| 2026-05-08 15:53 | 40.64356 | -36.28863 | 38343 ft | 481 kts | 57° |
| 2026-05-08 15:53 | 40.67571 | -36.21135 | 38339 ft | 481 kts | 57° |
| 2026-05-08 15:54 | 40.70776 | -36.13416 | 38351 ft | 478 kts | 58° |
| 2026-05-08 15:54 | 40.73963 | -36.05718 | 38326 ft | 479 kts | 58° |
| 2026-05-08 15:55 | 40.77148 | -35.98005 | 38321 ft | 479 kts | 58° |
| 2026-05-08 15:55 | 40.81909 | -35.86446 | 38330 ft | 476 kts | 58° |
| 2026-05-08 15:56 | 40.85064 | -35.78754 | 38329 ft | 477 kts | 58° |
| 2026-05-08 15:56 | 40.88196 | -35.71097 | 38329 ft | 477 kts | 58° |
| 2026-05-08 15:57 | 40.91347 | -35.63375 | 38336 ft | 477 kts | 58° |
| 2026-05-08 15:57 | 40.94495 | -35.55643 | 38334 ft | 477 kts | 59° |
| 2026-05-08 15:58 | 40.97638 | -35.47901 | 38328 ft | 478 kts | 59° |
| 2026-05-08 15:58 | 41.00776 | -35.40157 | 38329 ft | 477 kts | 59° |
| 2026-05-08 15:59 | 41.03892 | -35.32444 | 38327 ft | 475 kts | 59° |
| 2026-05-08 15:59 | 41.07004 | -35.24718 | 38320 ft | 475 kts | 59° |
| 2026-05-08 16:00 | 41.10108 | -35.16992 | 38318 ft | 475 kts | 59° |
| 2026-05-08 16:00 | 41.13199 | -35.09284 | 38318 ft | 471 kts | 60° |
| 2026-05-08 16:01 | 41.16270 | -35.01599 | 38319 ft | 472 kts | 60° |
| 2026-05-08 16:01 | 41.19341 | -34.93896 | 38317 ft | 472 kts | 60° |
| 2026-05-08 16:02 | 41.22401 | -34.86197 | 38314 ft | 469 kts | 60° |
| 2026-05-08 16:02 | 41.25441 | -34.78532 | 38309 ft | 469 kts | 60° |
| 2026-05-08 16:03 | 41.28480 | -34.70852 | 38309 ft | 469 kts | 60° |
| 2026-05-08 16:03 | 41.31496 | -34.63206 | 38323 ft | 469 kts | 60° |
| 2026-05-08 16:04 | 41.34511 | -34.55538 | 38297 ft | 467 kts | 60° |
| 2026-05-08 16:04 | 41.37519 | -34.47879 | 38301 ft | 467 kts | 60° |
| 2026-05-08 16:05 | 41.40523 | -34.40205 | 38301 ft | 467 kts | 60° |
| 2026-05-08 16:05 | 41.43523 | -34.32520 | 38303 ft | 468 kts | 60° |
| 2026-05-08 16:06 | 41.46520 | -34.24827 | 38303 ft | 468 kts | 60° |
| 2026-05-08 16:06 | 41.49512 | -34.17124 | 38305 ft | 468 kts | 60° |
| 2026-05-08 16:07 | 41.52496 | -34.09417 | 38310 ft | 468 kts | 59° |
| 2026-05-08 16:07 | 41.55457 | -34.01746 | 38300 ft | 468 kts | 59° |
| 2026-05-08 16:08 | 41.58455 | -33.93967 | 38278 ft | 468 kts | 59° |
| 2026-05-08 16:08 | 41.61408 | -33.86285 | 38277 ft | 468 kts | 59° |
| 2026-05-08 16:09 | 41.63892 | -33.79798 | 38286 ft | 468 kts | 59° |
| 2026-05-08 16:09 | 41.67328 | -33.70808 | 38311 ft | 467 kts | 59° |
| 2026-05-08 16:10 | 41.70278 | -33.63073 | 38301 ft | 466 kts | 59° |
| 2026-05-08 16:10 | 41.73219 | -33.55334 | 38296 ft | 466 kts | 59° |
| 2026-05-08 16:11 | 41.76142 | -33.47615 | 38283 ft | 464 kts | 59° |
| 2026-05-08 16:11 | 41.79061 | -33.39903 | 38279 ft | 464 kts | 59° |
| 2026-05-08 16:12 | 41.81973 | -33.32183 | 38276 ft | 464 kts | 59° |
| 2026-05-08 16:12 | 41.84878 | -33.24451 | 38273 ft | 464 kts | 58° |
| 2026-05-08 16:13 | 41.87782 | -33.16713 | 38270 ft | 464 kts | 58° |
| 2026-05-08 16:13 | 41.90681 | -33.08966 | 38271 ft | 465 kts | 58° |
| 2026-05-08 16:14 | 41.93575 | -33.01212 | 38273 ft | 464 kts | 58° |
| 2026-05-08 16:14 | 41.96461 | -32.93455 | 38271 ft | 464 kts | 58° |
| 2026-05-08 16:15 | 41.99344 | -32.85686 | 38269 ft | 464 kts | 59° |
| 2026-05-08 16:15 | 42.02219 | -32.77917 | 38269 ft | 464 kts | 59° |
| 2026-05-08 16:16 | 42.05090 | -32.70133 | 38267 ft | 465 kts | 58° |
| 2026-05-08 16:16 | 42.07959 | -32.62340 | 38262 ft | 465 kts | 58° |
| 2026-05-08 16:17 | 42.10341 | -32.55856 | 38259 ft | 465 kts | 58° |
| 2026-05-08 16:17 | 42.13663 | -32.46782 | 38259 ft | 465 kts | 58° |
| 2026-05-08 16:18 | 42.16518 | -32.38950 | 38261 ft | 466 kts | 58° |
| 2026-05-08 16:18 | 42.19373 | -32.31114 | 38256 ft | 466 kts | 58° |
| 2026-05-08 16:19 | 42.22223 | -32.23266 | 38256 ft | 466 kts | 58° |
| 2026-05-08 16:19 | 42.25064 | -32.15411 | 38256 ft | 466 kts | 57° |
| 2026-05-08 16:20 | 42.27425 | -32.08871 | 38252 ft | 466 kts | 57° |
| 2026-05-08 16:20 | 42.30260 | -32.01004 | 38251 ft | 466 kts | 57° |
| 2026-05-08 16:21 | 42.33080 | -31.93155 | 38248 ft | 466 kts | 57° |
| 2026-05-08 16:21 | 42.35901 | -31.85272 | 38273 ft | 466 kts | 57° |
| 2026-05-08 16:22 | 42.38721 | -31.77378 | 38239 ft | 466 kts | 57° |
| 2026-05-08 16:22 | 42.41531 | -31.69490 | 38230 ft | 466 kts | 57° |
| 2026-05-08 16:23 | 42.44335 | -31.61596 | 38268 ft | 465 kts | 57° |
| 2026-05-08 16:23 | 42.47134 | -31.53691 | 38240 ft | 465 kts | 56° |
| 2026-05-08 16:24 | 42.49926 | -31.45787 | 38235 ft | 465 kts | 57° |
| 2026-05-08 16:24 | 42.52711 | -31.37877 | 38230 ft | 465 kts | 57° |
| 2026-05-08 16:25 | 42.55490 | -31.29960 | 38233 ft | 465 kts | 56° |
| 2026-05-08 16:25 | 42.58264 | -31.22039 | 38234 ft | 465 kts | 56° |
| 2026-05-08 16:26 | 42.61031 | -31.14115 | 38228 ft | 464 kts | 56° |
| 2026-05-08 16:26 | 42.63791 | -31.06189 | 38227 ft | 464 kts | 56° |
| 2026-05-08 16:27 | 42.66546 | -30.98249 | 38221 ft | 465 kts | 56° |
| 2026-05-08 16:27 | 42.69275 | -30.90366 | 38221 ft | 464 kts | 56° |
| 2026-05-08 16:28 | 42.72033 | -30.82376 | 38226 ft | 463 kts | 56° |
| 2026-05-08 16:28 | 42.74747 | -30.74488 | 38268 ft | 464 kts | 56° |
| 2026-05-08 16:29 | 42.77479 | -30.66528 | 38220 ft | 464 kts | 56° |
| 2026-05-08 16:29 | 42.80203 | -30.58567 | 38219 ft | 464 kts | 56° |
| 2026-05-08 16:30 | 42.82921 | -30.50602 | 38215 ft | 464 kts | 56° |
| 2026-05-08 16:30 | 42.85626 | -30.42657 | 38215 ft | 464 kts | 56° |
| 2026-05-08 16:31 | 42.88341 | -30.34671 | 38217 ft | 464 kts | 56° |
| 2026-05-08 16:31 | 42.91032 | -30.26734 | 38208 ft | 464 kts | 56° |
| 2026-05-08 16:32 | 42.93735 | -30.18739 | 38208 ft | 464 kts | 56° |
| 2026-05-08 16:32 | 42.96432 | -30.10736 | 38204 ft | 464 kts | 56° |
| 2026-05-08 16:33 | 42.99126 | -30.02721 | 38204 ft | 464 kts | 56° |
| 2026-05-08 16:33 | 43.02040 | -29.94934 | 38201 ft | 454 kts | 48° |
| 2026-05-08 16:34 | 43.05585 | -29.87844 | 38249 ft | 452 kts | 47° |
| 2026-05-08 16:34 | 43.09100 | -29.80678 | 38208 ft | 454 kts | 48° |
| 2026-05-08 16:35 | 43.12518 | -29.73471 | 38183 ft | 455 kts | 49° |
| 2026-05-08 16:35 | 43.15942 | -29.66187 | 38170 ft | 455 kts | 49° |
| 2026-05-08 16:36 | 43.19363 | -29.58895 | 38193 ft | 455 kts | 49° |
| 2026-05-08 16:36 | 43.22783 | -29.51590 | 38194 ft | 455 kts | 49° |
| 2026-05-08 16:37 | 43.26196 | -29.44277 | 38189 ft | 455 kts | 49° |
| 2026-05-08 16:37 | 43.29600 | -29.36958 | 38190 ft | 455 kts | 49° |
| 2026-05-08 16:38 | 43.33003 | -29.29623 | 38190 ft | 456 kts | 50° |
| 2026-05-08 16:38 | 43.36404 | -29.22271 | 38184 ft | 456 kts | 50° |
| 2026-05-08 16:39 | 43.39798 | -29.14916 | 38189 ft | 456 kts | 50° |
| 2026-05-08 16:39 | 43.43188 | -29.07551 | 38217 ft | 455 kts | 50° |
| 2026-05-08 16:40 | 43.46575 | -29.00178 | 38194 ft | 456 kts | 50° |
| 2026-05-08 16:40 | 43.49956 | -28.92795 | 38196 ft | 455 kts | 50° |
| 2026-05-08 16:41 | 43.53333 | -28.85402 | 38166 ft | 456 kts | 50° |
| 2026-05-08 16:42 | 43.58392 | -28.74299 | 38155 ft | 457 kts | 50° |
| 2026-05-08 16:42 | 43.61762 | -28.66876 | 38154 ft | 456 kts | 50° |
| 2026-05-08 16:43 | 43.65101 | -28.59501 | 38163 ft | 456 kts | 51° |
| 2026-05-08 16:43 | 43.68450 | -28.52087 | 38196 ft | 456 kts | 51° |
| 2026-05-08 16:44 | 43.71806 | -28.44638 | 38163 ft | 456 kts | 51° |
| 2026-05-08 16:44 | 43.75154 | -28.37189 | 38158 ft | 456 kts | 51° |
| 2026-05-08 16:45 | 43.78495 | -28.29737 | 38153 ft | 456 kts | 51° |
| 2026-05-08 16:45 | 43.81832 | -28.22275 | 38138 ft | 456 kts | 51° |
| 2026-05-08 16:46 | 43.85166 | -28.14797 | 38138 ft | 456 kts | 52° |
| 2026-05-08 16:46 | 43.88495 | -28.07312 | 38135 ft | 456 kts | 52° |
| 2026-05-08 16:47 | 43.91820 | -27.99817 | 38143 ft | 456 kts | 52° |
| 2026-05-08 16:47 | 43.95143 | -27.92307 | 38146 ft | 457 kts | 52° |
| 2026-05-08 16:48 | 43.98471 | -27.84767 | 38140 ft | 458 kts | 52° |
| 2026-05-08 16:48 | 44.01795 | -27.77214 | 38130 ft | 459 kts | 52° |
| 2026-05-08 16:49 | 44.05117 | -27.69646 | 38129 ft | 459 kts | 52° |
| 2026-05-08 16:49 | 44.08442 | -27.62054 | 38119 ft | 460 kts | 52° |
| 2026-05-08 16:50 | 44.11765 | -27.54443 | 38123 ft | 461 kts | 52° |
| 2026-05-08 16:50 | 44.15089 | -27.46812 | 38130 ft | 461 kts | 52° |
| 2026-05-08 16:51 | 44.18410 | -27.39167 | 38125 ft | 461 kts | 52° |
| 2026-05-08 16:51 | 44.21726 | -27.31512 | 38124 ft | 461 kts | 52° |
| 2026-05-08 16:52 | 44.25035 | -27.23855 | 38117 ft | 461 kts | 52° |
| 2026-05-08 16:52 | 44.28335 | -27.16195 | 38124 ft | 461 kts | 52° |
| 2026-05-08 16:53 | 44.33281 | -27.04680 | 38124 ft | 462 kts | 52° |
| 2026-05-08 16:53 | 44.36577 | -26.96980 | 38118 ft | 461 kts | 52° |
| 2026-05-08 16:54 | 44.39864 | -26.89280 | 38119 ft | 461 kts | 53° |
| 2026-05-08 16:54 | 44.43147 | -26.81569 | 38110 ft | 461 kts | 53° |
| 2026-05-08 16:55 | 44.46405 | -26.73897 | 38100 ft | 461 kts | 53° |
| 2026-05-08 16:55 | 44.49673 | -26.66177 | 38121 ft | 460 kts | 53° |
| 2026-05-08 16:56 | 44.52933 | -26.58457 | 38127 ft | 460 kts | 53° |
| 2026-05-08 16:56 | 44.56186 | -26.50735 | 38126 ft | 460 kts | 53° |
| 2026-05-08 16:57 | 44.59431 | -26.43008 | 38096 ft | 460 kts | 53° |
| 2026-05-08 16:57 | 44.62670 | -26.35275 | 38090 ft | 459 kts | 53° |
| 2026-05-08 16:58 | 44.65902 | -26.27538 | 38085 ft | 459 kts | 53° |
| 2026-05-08 16:58 | 44.69115 | -26.19828 | 38092 ft | 459 kts | 53° |
| 2026-05-08 16:59 | 44.72339 | -26.12068 | 38080 ft | 459 kts | 53° |
| 2026-05-08 16:59 | 44.75553 | -26.04307 | 38085 ft | 459 kts | 53° |
| 2026-05-08 17:00 | 44.78760 | -25.96547 | 38080 ft | 459 kts | 53° |
| 2026-05-08 17:00 | 44.81966 | -25.88769 | 38061 ft | 460 kts | 54° |
| 2026-05-08 17:01 | 44.85170 | -25.80971 | 38067 ft | 460 kts | 54° |
| 2026-05-08 17:01 | 44.88371 | -25.73158 | 38065 ft | 460 kts | 54° |
| 2026-05-08 17:02 | 44.91567 | -25.65335 | 38058 ft | 460 kts | 54° |
| 2026-05-08 17:02 | 44.94766 | -25.57495 | 38058 ft | 462 kts | 55° |
| 2026-05-08 17:03 | 44.97941 | -25.49681 | 38058 ft | 462 kts | 55° |
| 2026-05-08 17:03 | 45.01138 | -25.41787 | 38051 ft | 463 kts | 55° |
| 2026-05-08 17:04 | 45.04330 | -25.33888 | 38053 ft | 463 kts | 55° |
| 2026-05-08 17:04 | 45.07525 | -25.25964 | 38052 ft | 464 kts | 55° |
| 2026-05-08 17:05 | 45.10717 | -25.18015 | 38038 ft | 465 kts | 56° |
| 2026-05-08 17:05 | 45.13908 | -25.10050 | 38047 ft | 465 kts | 56° |
| 2026-05-08 17:06 | 45.17094 | -25.02073 | 38043 ft | 465 kts | 56° |
| 2026-05-08 17:06 | 45.20281 | -24.94078 | 38029 ft | 466 kts | 56° |
| 2026-05-08 17:07 | 45.23462 | -24.86068 | 38025 ft | 466 kts | 56° |
| 2026-05-08 17:07 | 45.26637 | -24.78050 | 38040 ft | 466 kts | 56° |
| 2026-05-08 17:08 | 45.29270 | -24.71386 | 38016 ft | 466 kts | 56° |
| 2026-05-08 17:08 | 45.32434 | -24.63359 | 38025 ft | 466 kts | 56° |
| 2026-05-08 17:09 | 45.35597 | -24.55305 | 38021 ft | 466 kts | 56° |
| 2026-05-08 17:09 | 45.38752 | -24.47250 | 38021 ft | 466 kts | 57° |
| 2026-05-08 17:10 | 45.41903 | -24.39184 | 38013 ft | 466 kts | 56° |
| 2026-05-08 17:10 | 45.45045 | -24.31114 | 38003 ft | 466 kts | 57° |
| 2026-05-08 17:11 | 45.48181 | -24.23036 | 38002 ft | 466 kts | 56° |
| 2026-05-08 17:11 | 45.51317 | -24.14935 | 38007 ft | 466 kts | 57° |
| 2026-05-08 17:12 | 45.54444 | -24.06834 | 38031 ft | 466 kts | 57° |
| 2026-05-08 17:12 | 45.57568 | -23.98717 | 38007 ft | 467 kts | 57° |
| 2026-05-08 17:13 | 45.60686 | -23.90586 | 37999 ft | 467 kts | 57° |
| 2026-05-08 17:13 | 45.63799 | -23.82451 | 37995 ft | 467 kts | 57° |
| 2026-05-08 17:14 | 45.66886 | -23.74361 | 37995 ft | 467 kts | 57° |
| 2026-05-08 17:14 | 45.69989 | -23.66204 | 37985 ft | 467 kts | 57° |
| 2026-05-08 17:15 | 45.73090 | -23.58031 | 37987 ft | 467 kts | 58° |
| 2026-05-08 17:15 | 45.76176 | -23.49860 | 37982 ft | 466 kts | 57° |
| 2026-05-08 17:16 | 45.79262 | -23.41678 | 37993 ft | 466 kts | 58° |
| 2026-05-08 17:16 | 45.82334 | -23.33502 | 37973 ft | 466 kts | 58° |
| 2026-05-08 17:17 | 45.85404 | -23.25308 | 37963 ft | 467 kts | 58° |
| 2026-05-08 17:17 | 45.88464 | -23.17111 | 37963 ft | 466 kts | 58° |
| 2026-05-08 17:18 | 45.91527 | -23.08906 | 37963 ft | 467 kts | 58° |
| 2026-05-08 17:18 | 45.94588 | -23.00669 | 37937 ft | 466 kts | 58° |
| 2026-05-08 17:19 | 45.97626 | -22.92439 | 37941 ft | 465 kts | 58° |
| 2026-05-08 17:19 | 46.00669 | -22.84196 | 37940 ft | 466 kts | 59° |
| 2026-05-08 17:20 | 46.03704 | -22.75953 | 37950 ft | 466 kts | 59° |
| 2026-05-08 17:20 | 46.06729 | -22.67707 | 37928 ft | 467 kts | 59° |
| 2026-05-08 17:21 | 46.09737 | -22.59486 | 37921 ft | 468 kts | 58° |
| 2026-05-08 17:21 | 46.12759 | -22.51202 | 37921 ft | 467 kts | 58° |
| 2026-05-08 17:22 | 46.15772 | -22.42910 | 37926 ft | 468 kts | 60° |
| 2026-05-08 17:22 | 46.18799 | -22.34559 | 37901 ft | 468 kts | 59° |
| 2026-05-08 17:23 | 46.21808 | -22.26234 | 37907 ft | 467 kts | 60° |
| 2026-05-08 17:23 | 46.24814 | -22.17897 | 37895 ft | 468 kts | 59° |
| 2026-05-08 17:24 | 46.27804 | -22.09566 | 37903 ft | 467 kts | 60° |
| 2026-05-08 17:24 | 46.30800 | -22.01198 | 37892 ft | 470 kts | 60° |
| 2026-05-08 17:25 | 46.33794 | -21.92798 | 37887 ft | 470 kts | 60° |
| 2026-05-08 17:25 | 46.36783 | -21.84386 | 37887 ft | 470 kts | 60° |
| 2026-05-08 17:26 | 46.39772 | -21.75964 | 37896 ft | 471 kts | 61° |
| 2026-05-08 17:26 | 46.42771 | -21.67475 | 37889 ft | 474 kts | 62° |
| 2026-05-08 17:27 | 46.45765 | -21.58965 | 37890 ft | 473 kts | 62° |
| 2026-05-08 17:27 | 46.48753 | -21.50453 | 37890 ft | 474 kts | 62° |
| 2026-05-08 17:28 | 46.51737 | -21.41929 | 37889 ft | 474 kts | 62° |
| 2026-05-08 17:28 | 46.54700 | -21.33434 | 37892 ft | 475 kts | 62° |
| 2026-05-08 17:29 | 46.57685 | -21.24850 | 37898 ft | 476 kts | 62° |
| 2026-05-08 17:29 | 46.60663 | -21.16257 | 37904 ft | 476 kts | 62° |
| 2026-05-08 17:30 | 46.63640 | -21.07640 | 37904 ft | 476 kts | 62° |
| 2026-05-08 17:30 | 46.66607 | -20.99024 | 37907 ft | 476 kts | 62° |
| 2026-05-08 17:31 | 46.69567 | -20.90400 | 37907 ft | 476 kts | 62° |
| 2026-05-08 17:31 | 46.72525 | -20.81752 | 37907 ft | 476 kts | 62° |
| 2026-05-08 17:32 | 46.75466 | -20.73126 | 37900 ft | 473 kts | 63° |
| 2026-05-08 17:32 | 46.78386 | -20.64533 | 37899 ft | 473 kts | 63° |
| 2026-05-08 17:33 | 46.81307 | -20.55911 | 37904 ft | 474 kts | 63° |
| 2026-05-08 17:33 | 46.84220 | -20.47283 | 37903 ft | 473 kts | 63° |
| 2026-05-08 17:34 | 46.87131 | -20.38650 | 37904 ft | 474 kts | 63° |
| 2026-05-08 17:34 | 46.90041 | -20.30001 | 37904 ft | 474 kts | 63° |
| 2026-05-08 17:35 | 46.92940 | -20.21351 | 37909 ft | 473 kts | 63° |
| 2026-05-08 17:35 | 46.95832 | -20.12693 | 37911 ft | 474 kts | 63° |
| 2026-05-08 17:36 | 46.98719 | -20.04024 | 37912 ft | 474 kts | 64° |
| 2026-05-08 17:36 | 47.01740 | -19.95434 | 37913 ft | 474 kts | 58° |
| 2026-05-08 17:37 | 47.05381 | -19.87373 | 37910 ft | 475 kts | 56° |
| 2026-05-08 17:37 | 47.09024 | -19.79288 | 37911 ft | 475 kts | 57° |
| 2026-05-08 17:38 | 47.12597 | -19.71127 | 37916 ft | 476 kts | 58° |
| 2026-05-08 17:38 | 47.16123 | -19.62983 | 37920 ft | 475 kts | 58° |
| 2026-05-08 17:39 | 47.19660 | -19.54784 | 37919 ft | 475 kts | 58° |
| 2026-05-08 17:39 | 47.23194 | -19.46569 | 37919 ft | 475 kts | 58° |
| 2026-05-08 17:40 | 47.26721 | -19.38345 | 37920 ft | 475 kts | 58° |
| 2026-05-08 17:41 | 47.27908 | -19.35576 | 37928 ft | 475 kts | 58° |
| 2026-05-08 17:41 | 47.31429 | -19.27334 | 37930 ft | 475 kts | 58° |
| 2026-05-08 17:42 | 47.34944 | -19.19081 | 37927 ft | 475 kts | 58° |
| 2026-05-08 17:42 | 47.38455 | -19.10812 | 37931 ft | 476 kts | 58° |
| 2026-05-08 17:43 | 47.41960 | -19.02533 | 37923 ft | 476 kts | 59° |
| 2026-05-08 17:43 | 47.45465 | -18.94231 | 37925 ft | 476 kts | 59° |
| 2026-05-08 17:44 | 47.48965 | -18.85914 | 37928 ft | 477 kts | 59° |
| 2026-05-08 17:44 | 47.52461 | -18.77581 | 37938 ft | 477 kts | 59° |
| 2026-05-08 17:45 | 47.55949 | -18.69242 | 37929 ft | 477 kts | 59° |
| 2026-05-08 17:45 | 47.59434 | -18.60885 | 37931 ft | 477 kts | 59° |
| 2026-05-08 17:46 | 47.62915 | -18.52509 | 37934 ft | 477 kts | 59° |
| 2026-05-08 17:46 | 47.66393 | -18.44116 | 37935 ft | 478 kts | 59° |
| 2026-05-08 17:47 | 47.69865 | -18.35714 | 37938 ft | 478 kts | 59° |
| 2026-05-08 17:47 | 47.72751 | -18.28710 | 37937 ft | 478 kts | 60° |
| 2026-05-08 17:48 | 47.76779 | -18.18899 | 37940 ft | 479 kts | 59° |
| 2026-05-08 17:48 | 47.80242 | -18.10438 | 37944 ft | 479 kts | 60° |
| 2026-05-08 17:49 | 47.83699 | -18.01966 | 37948 ft | 479 kts | 60° |
| 2026-05-08 17:49 | 47.87148 | -17.93488 | 37948 ft | 479 kts | 60° |
| 2026-05-08 17:50 | 47.90591 | -17.84993 | 37949 ft | 479 kts | 60° |
| 2026-05-08 17:50 | 47.94028 | -17.76494 | 37950 ft | 479 kts | 60° |
| 2026-05-08 17:51 | 47.97455 | -17.67975 | 37957 ft | 479 kts | 60° |
| 2026-05-08 17:51 | 48.00880 | -17.59448 | 37955 ft | 479 kts | 60° |
| 2026-05-08 17:52 | 48.04299 | -17.50914 | 37957 ft | 479 kts | 60° |
| 2026-05-08 17:53 | 48.09411 | -17.38091 | 37960 ft | 479 kts | 60° |
| 2026-05-08 17:53 | 48.12809 | -17.29533 | 37955 ft | 478 kts | 60° |
| 2026-05-08 17:54 | 48.16203 | -17.20963 | 37965 ft | 478 kts | 61° |
| 2026-05-08 17:54 | 48.19587 | -17.12392 | 37962 ft | 478 kts | 61° |
| 2026-05-08 17:55 | 48.22965 | -17.03806 | 37960 ft | 478 kts | 61° |
| 2026-05-08 17:55 | 48.26308 | -16.95277 | 37961 ft | 478 kts | 61° |
| 2026-05-08 17:56 | 48.29673 | -16.86675 | 37965 ft | 478 kts | 61° |
| 2026-05-08 17:56 | 48.33028 | -16.78053 | 37963 ft | 478 kts | 61° |
| 2026-05-08 17:57 | 48.36384 | -16.69421 | 37965 ft | 478 kts | 62° |
| 2026-05-08 17:57 | 48.39188 | -16.62178 | 37964 ft | 478 kts | 62° |
| 2026-05-08 17:58 | 48.43071 | -16.52114 | 37960 ft | 479 kts | 62° |
| 2026-05-08 17:58 | 48.45845 | -16.44903 | 37975 ft | 479 kts | 62° |
| 2026-05-08 17:59 | 48.49182 | -16.36211 | 37975 ft | 479 kts | 62° |
| 2026-05-08 17:59 | 48.52507 | -16.27506 | 37953 ft | 479 kts | 62° |
| 2026-05-08 18:00 | 48.55270 | -16.20256 | 37965 ft | 479 kts | 62° |
| 2026-05-08 18:00 | 48.60803 | -16.05674 | 37972 ft | 480 kts | 62° |
| 2026-05-08 18:01 | 48.64024 | -15.97149 | 37971 ft | 480 kts | 62° |
| 2026-05-08 18:01 | 48.67331 | -15.88371 | 37971 ft | 480 kts | 62° |
| 2026-05-08 18:02 | 48.70633 | -15.79585 | 37970 ft | 480 kts | 63° |
| 2026-05-08 18:02 | 48.73926 | -15.70779 | 37973 ft | 481 kts | 63° |
| 2026-05-08 18:03 | 48.77214 | -15.61959 | 37978 ft | 481 kts | 63° |
| 2026-05-08 18:03 | 48.80496 | -15.53126 | 37980 ft | 481 kts | 63° |
| 2026-05-08 18:04 | 48.83771 | -15.44286 | 37980 ft | 480 kts | 63° |
| 2026-05-08 18:04 | 48.87039 | -15.35434 | 37987 ft | 480 kts | 63° |
| 2026-05-08 18:05 | 48.90300 | -15.26570 | 37985 ft | 481 kts | 63° |
| 2026-05-08 18:05 | 48.93555 | -15.17698 | 37986 ft | 481 kts | 63° |
| 2026-05-08 18:06 | 48.96785 | -15.08873 | 37963 ft | 480 kts | 64° |
| 2026-05-08 18:06 | 48.99209 | -14.99491 | 37979 ft | 475 kts | 78° |
| 2026-05-08 18:07 | 49.00095 | -14.89609 | 37980 ft | 470 kts | 92° |
| 2026-05-08 18:07 | 49.00136 | -14.79668 | 37979 ft | 470 kts | 92° |
| 2026-05-08 18:08 | 49.00215 | -14.69718 | 37981 ft | 470 kts | 92° |
| 2026-05-08 18:08 | 49.00278 | -14.59769 | 37976 ft | 470 kts | 92° |
| 2026-05-08 18:09 | 49.00325 | -14.49810 | 37975 ft | 470 kts | 92° |
| 2026-05-08 18:09 | 49.00364 | -14.39852 | 37976 ft | 470 kts | 92° |
| 2026-05-08 18:10 | 49.00394 | -14.29889 | 37977 ft | 470 kts | 92° |
| 2026-05-08 18:10 | 49.00415 | -14.19928 | 37960 ft | 470 kts | 93° |
| 2026-05-08 18:11 | 49.00428 | -14.09963 | 37964 ft | 471 kts | 93° |
| 2026-05-08 18:11 | 49.00432 | -13.99993 | 37965 ft | 471 kts | 93° |
| 2026-05-08 18:12 | 49.00428 | -13.90031 | 37965 ft | 471 kts | 93° |
| 2026-05-08 18:12 | 49.00415 | -13.80114 | 37969 ft | 471 kts | 93° |
| 2026-05-08 18:13 | 49.00394 | -13.70137 | 37966 ft | 471 kts | 93° |
| 2026-05-08 18:13 | 49.00365 | -13.60164 | 37956 ft | 471 kts | 94° |
| 2026-05-08 18:14 | 49.00326 | -13.50197 | 37973 ft | 471 kts | 93° |
| 2026-05-08 18:14 | 49.00278 | -13.40225 | 37952 ft | 471 kts | 93° |
| 2026-05-08 18:15 | 49.00223 | -13.30261 | 37954 ft | 471 kts | 94° |
| 2026-05-08 18:15 | 49.00160 | -13.20293 | 37946 ft | 471 kts | 94° |
| 2026-05-08 18:16 | 49.00087 | -13.10325 | 37947 ft | 471 kts | 94° |
| 2026-05-08 18:16 | 49.00481 | -13.00345 | 37943 ft | 475 kts | 84° |
| 2026-05-08 18:17 | 49.02106 | -12.90545 | 37944 ft | 480 kts | 73° |
| 2026-05-08 18:17 | 49.04295 | -12.80932 | 37927 ft | 481 kts | 74° |
| 2026-05-08 18:18 | 49.06454 | -12.71288 | 37943 ft | 481 kts | 74° |
| 2026-05-08 18:18 | 49.08607 | -12.61617 | 37964 ft | 481 kts | 74° |
| 2026-05-08 18:19 | 49.10750 | -12.51937 | 37970 ft | 481 kts | 74° |
| 2026-05-08 18:19 | 49.12885 | -12.42252 | 37952 ft | 482 kts | 75° |
| 2026-05-08 18:20 | 49.15000 | -12.32607 | 37961 ft | 483 kts | 75° |
| 2026-05-08 18:20 | 49.17123 | -12.22881 | 37964 ft | 483 kts | 75° |
| 2026-05-08 18:21 | 49.19239 | -12.13143 | 37965 ft | 483 kts | 75° |
| 2026-05-08 18:21 | 49.21346 | -12.03403 | 37950 ft | 482 kts | 75° |
| 2026-05-08 18:22 | 49.23444 | -11.93677 | 37977 ft | 481 kts | 76° |
| 2026-05-08 18:22 | 49.25524 | -11.83949 | 37973 ft | 481 kts | 76° |
| 2026-05-08 18:23 | 49.27596 | -11.74226 | 37973 ft | 480 kts | 76° |
| 2026-05-08 18:23 | 49.29660 | -11.64495 | 37975 ft | 480 kts | 76° |
| 2026-05-08 18:24 | 49.31706 | -11.54820 | 37981 ft | 474 kts | 76° |
| 2026-05-08 18:24 | 49.33729 | -11.45185 | 37976 ft | 475 kts | 76° |
| 2026-05-08 18:25 | 49.35747 | -11.35534 | 37971 ft | 475 kts | 76° |
| 2026-05-08 18:25 | 49.37757 | -11.25878 | 37970 ft | 475 kts | 77° |
| 2026-05-08 18:26 | 49.39756 | -11.16229 | 37972 ft | 474 kts | 77° |
| 2026-05-08 18:26 | 49.41749 | -11.06559 | 37975 ft | 475 kts | 77° |
| 2026-05-08 18:27 | 49.43396 | -10.98533 | 37981 ft | 475 kts | 77° |
| 2026-05-08 18:27 | 49.45697 | -10.87266 | 37982 ft | 475 kts | 77° |
| 2026-05-08 18:28 | 49.47670 | -10.77555 | 37953 ft | 476 kts | 77° |
| 2026-05-08 18:28 | 49.49636 | -10.67830 | 37979 ft | 477 kts | 77° |
| 2026-05-08 18:29 | 49.51599 | -10.58071 | 37984 ft | 477 kts | 77° |
| 2026-05-08 18:29 | 49.53554 | -10.48302 | 37987 ft | 478 kts | 77° |
| 2026-05-08 18:30 | 49.55502 | -10.38521 | 37993 ft | 478 kts | 77° |
| 2026-05-08 18:30 | 49.57442 | -10.28731 | 37985 ft | 478 kts | 77° |
| 2026-05-08 18:31 | 49.59378 | -10.18909 | 37989 ft | 479 kts | 77° |
| 2026-05-08 18:31 | 49.61307 | -10.09076 | 38002 ft | 479 kts | 77° |
| 2026-05-08 18:32 | 49.63230 | -9.99225 | 38003 ft | 479 kts | 77° |
| 2026-05-08 18:32 | 49.65141 | -9.89374 | 37997 ft | 479 kts | 77° |
| 2026-05-08 18:33 | 49.67033 | -9.79577 | 37997 ft | 480 kts | 77° |
| 2026-05-08 18:33 | 49.68930 | -9.69701 | 37998 ft | 480 kts | 77° |
| 2026-05-08 18:34 | 49.70819 | -9.59818 | 38000 ft | 480 kts | 78° |
| 2026-05-08 18:34 | 49.72701 | -9.49924 | 38004 ft | 480 kts | 78° |
| 2026-05-08 18:35 | 49.74572 | -9.40029 | 38008 ft | 480 kts | 78° |
| 2026-05-08 18:35 | 49.76437 | -9.30119 | 38007 ft | 480 kts | 78° |
| 2026-05-08 18:36 | 49.78291 | -9.20212 | 38002 ft | 479 kts | 78° |
| 2026-05-08 18:36 | 49.80136 | -9.10299 | 38006 ft | 479 kts | 78° |
| 2026-05-08 18:37 | 49.81970 | -9.00398 | 38014 ft | 478 kts | 78° |
| 2026-05-08 18:37 | 49.83794 | -8.90489 | 38013 ft | 478 kts | 78° |
| 2026-05-08 18:38 | 49.85610 | -8.80577 | 38013 ft | 478 kts | 78° |
| 2026-05-08 18:38 | 49.87416 | -8.70654 | 37997 ft | 479 kts | 78° |
| 2026-05-08 18:39 | 49.89219 | -8.60702 | 38002 ft | 480 kts | 78° |
| 2026-05-08 18:39 | 49.91016 | -8.50730 | 38007 ft | 480 kts | 78° |
| 2026-05-08 18:40 | 49.92807 | -8.40739 | 38010 ft | 481 kts | 78° |
| 2026-05-08 18:40 | 49.94589 | -8.30743 | 38020 ft | 481 kts | 78° |
| 2026-05-08 18:41 | 49.96365 | -8.20724 | 37998 ft | 481 kts | 78° |
| 2026-05-08 18:41 | 49.98127 | -8.10762 | 38016 ft | 477 kts | 79° |
| 2026-05-08 18:42 | 49.99857 | -8.00865 | 38017 ft | 477 kts | 80° |
| 2026-05-08 18:42 | 50.01303 | -7.90822 | 38022 ft | 476 kts | 81° |
| 2026-05-08 18:43 | 50.02793 | -7.80784 | 38013 ft | 476 kts | 81° |
| 2026-05-08 18:43 | 50.04264 | -7.70805 | 38011 ft | 476 kts | 81° |
| 2026-05-08 18:44 | 50.05729 | -7.60676 | 38017 ft | 477 kts | 81° |
| 2026-05-08 18:44 | 50.07163 | -7.50666 | 38025 ft | 477 kts | 81° |
| 2026-05-08 18:45 | 50.08598 | -7.40577 | 38020 ft | 477 kts | 82° |
| 2026-05-08 18:45 | 50.10024 | -7.30489 | 38006 ft | 477 kts | 81° |
| 2026-05-08 18:46 | 50.11443 | -7.20380 | 38028 ft | 478 kts | 82° |
| 2026-05-08 18:46 | 50.12854 | -7.10262 | 38031 ft | 478 kts | 82° |
| 2026-05-08 18:47 | 50.14256 | -7.00137 | 38029 ft | 478 kts | 82° |
| 2026-05-08 18:47 | 50.15649 | -6.90006 | 38032 ft | 478 kts | 82° |
| 2026-05-08 18:48 | 50.16801 | -6.81574 | 38026 ft | 478 kts | 82° |
| 2026-05-08 18:48 | 50.18181 | -6.71412 | 38033 ft | 479 kts | 82° |
| 2026-05-08 18:49 | 50.19552 | -6.61244 | 38037 ft | 479 kts | 82° |
| 2026-05-08 18:49 | 50.20915 | -6.51063 | 38037 ft | 479 kts | 82° |
| 2026-05-08 18:50 | 50.22269 | -6.40880 | 38021 ft | 479 kts | 82° |
| 2026-05-08 18:50 | 50.23612 | -6.30699 | 38032 ft | 479 kts | 82° |
| 2026-05-08 18:51 | 50.24949 | -6.20497 | 38031 ft | 479 kts | 82° |
| 2026-05-08 18:51 | 50.26277 | -6.10289 | 38029 ft | 480 kts | 82° |
| 2026-05-08 18:52 | 50.27598 | -6.00055 | 38040 ft | 480 kts | 82° |
| 2026-05-08 18:52 | 50.28911 | -5.89807 | 38032 ft | 481 kts | 82° |
| 2026-05-08 18:53 | 50.30219 | -5.79529 | 38034 ft | 482 kts | 82° |
| 2026-05-08 18:53 | 50.31519 | -5.69239 | 38038 ft | 483 kts | 82° |
| 2026-05-08 18:54 | 50.32811 | -5.58931 | 38038 ft | 483 kts | 82° |
| 2026-05-08 18:54 | 50.34093 | -5.48622 | 38030 ft | 483 kts | 82° |
| 2026-05-08 18:55 | 50.36003 | -5.33119 | 38050 ft | 483 kts | 82° |
| 2026-05-08 18:56 | 50.37257 | -5.22846 | 38052 ft | 483 kts | 82° |
| 2026-05-08 18:56 | 50.38509 | -5.12498 | 38053 ft | 484 kts | 82° |
| 2026-05-08 18:57 | 50.39752 | -5.02149 | 38052 ft | 483 kts | 82° |
| 2026-05-08 18:57 | 50.40987 | -4.91786 | 38054 ft | 483 kts | 82° |
| 2026-05-08 18:58 | 50.42212 | -4.81423 | 38052 ft | 483 kts | 82° |
| 2026-05-08 18:58 | 50.43427 | -4.71060 | 38051 ft | 483 kts | 82° |
| 2026-05-08 18:59 | 50.44632 | -4.60699 | 38033 ft | 483 kts | 82° |
| 2026-05-08 18:59 | 50.45829 | -4.50320 | 38042 ft | 483 kts | 82° |
| 2026-05-08 19:00 | 50.47018 | -4.39938 | 38044 ft | 484 kts | 82° |
| 2026-05-08 19:00 | 50.48198 | -4.29535 | 38047 ft | 484 kts | 82° |
| 2026-05-08 19:01 | 50.49369 | -4.19132 | 38048 ft | 484 kts | 82° |
| 2026-05-08 19:01 | 50.50532 | -4.08713 | 38045 ft | 484 kts | 82° |
| 2026-05-08 19:02 | 50.51693 | -3.98284 | 38052 ft | 485 kts | 82° |
| 2026-05-08 19:02 | 50.52855 | -3.87847 | 38061 ft | 485 kts | 82° |
| 2026-05-08 19:03 | 50.54021 | -3.77412 | 38065 ft | 485 kts | 82° |
| 2026-05-08 19:03 | 50.55178 | -3.66963 | 38056 ft | 485 kts | 82° |
| 2026-05-08 19:04 | 50.56318 | -3.56579 | 38056 ft | 486 kts | 82° |
| 2026-05-08 19:04 | 50.57521 | -3.46111 | 38060 ft | 487 kts | 78° |
| 2026-05-08 19:05 | 50.59426 | -3.35871 | 38054 ft | 488 kts | 75° |
| 2026-05-08 19:05 | 50.61357 | -3.25670 | 38041 ft | 489 kts | 75° |
| 2026-05-08 19:06 | 50.63285 | -3.15387 | 38060 ft | 490 kts | 75° |
| 2026-05-08 19:06 | 50.65210 | -3.05080 | 38065 ft | 491 kts | 75° |
| 2026-05-08 19:07 | 50.67127 | -2.94760 | 38065 ft | 491 kts | 75° |
| 2026-05-08 19:07 | 50.69037 | -2.84423 | 38064 ft | 491 kts | 75° |
| 2026-05-08 19:08 | 50.70934 | -2.74080 | 38071 ft | 491 kts | 75° |
| 2026-05-08 19:08 | 50.72824 | -2.63738 | 38073 ft | 490 kts | 75° |
| 2026-05-08 19:09 | 50.74703 | -2.53394 | 38071 ft | 490 kts | 75° |
| 2026-05-08 19:09 | 50.76571 | -2.43055 | 38073 ft | 490 kts | 75° |
| 2026-05-08 19:10 | 50.78431 | -2.32695 | 38064 ft | 490 kts | 75° |
| 2026-05-08 19:10 | 50.80279 | -2.22343 | 38072 ft | 489 kts | 75° |
| 2026-05-08 19:11 | 50.82115 | -2.11995 | 38069 ft | 489 kts | 75° |
| 2026-05-08 19:11 | 50.83932 | -2.01693 | 38071 ft | 489 kts | 75° |
| 2026-05-08 19:12 | 50.85762 | -1.91257 | 38073 ft | 489 kts | 75° |
| 2026-05-08 19:12 | 50.87557 | -1.80949 | 38078 ft | 489 kts | 74° |
| 2026-05-08 19:13 | 50.89357 | -1.70573 | 38076 ft | 489 kts | 75° |
| 2026-05-08 19:13 | 50.91147 | -1.60195 | 38076 ft | 488 kts | 75° |
| 2026-05-08 19:14 | 50.92926 | -1.49809 | 38074 ft | 488 kts | 75° |
| 2026-05-08 19:14 | 50.94696 | -1.39414 | 38071 ft | 488 kts | 75° |
| 2026-05-08 19:15 | 50.96031 | -1.28903 | 38073 ft | 488 kts | 83° |
| 2026-05-08 19:15 | 50.96945 | -1.18236 | 38073 ft | 488 kts | 82° |
| 2026-05-08 19:16 | 50.97880 | -1.07565 | 38079 ft | 488 kts | 82° |
| 2026-05-08 19:16 | 50.98800 | -0.96887 | 38079 ft | 488 kts | 82° |
| 2026-05-08 19:17 | 50.99705 | -0.86211 | 38076 ft | 488 kts | 82° |
| 2026-05-08 19:17 | 51.00603 | -0.75516 | 38077 ft | 489 kts | 82° |
| 2026-05-08 19:18 | 51.01492 | -0.64815 | 38080 ft | 489 kts | 82° |
| 2026-05-08 19:18 | 51.02361 | -0.54221 | 38080 ft | 489 kts | 82° |
| 2026-05-08 19:19 | 51.03230 | -0.43515 | 38094 ft | 489 kts | 82° |
| 2026-05-08 19:19 | 51.04089 | -0.32797 | 38099 ft | 489 kts | 82° |
| 2026-05-08 19:20 | 51.04938 | -0.22080 | 38104 ft | 489 kts | 83° |
| 2026-05-08 19:20 | 51.05778 | -0.11360 | 38102 ft | 489 kts | 83° |
| 2026-05-08 19:21 | 51.06607 | -0.00630 | 38102 ft | 489 kts | 83° |
| 2026-05-08 19:21 | 51.07428 | 0.10111 | 38114 ft | 490 kts | 83° |
| 2026-05-08 19:22 | 51.08239 | 0.20868 | 38136 ft | 490 kts | 83° |
| 2026-05-08 19:22 | 51.09041 | 0.31639 | 38151 ft | 490 kts | 83° |
| 2026-05-08 19:23 | 51.09828 | 0.42340 | 38157 ft | 490 kts | 83° |
| 2026-05-08 19:23 | 51.10609 | 0.53117 | 38152 ft | 491 kts | 83° |
| 2026-05-08 19:24 | 51.11382 | 0.63911 | 38144 ft | 491 kts | 83° |
| 2026-05-08 19:24 | 51.12143 | 0.74713 | 38132 ft | 491 kts | 83° |
| 2026-05-08 19:25 | 51.12894 | 0.85516 | 38122 ft | 491 kts | 83° |
| 2026-05-08 19:25 | 51.13635 | 0.96322 | 38103 ft | 491 kts | 83° |
| 2026-05-08 19:26 | 51.14364 | 1.07122 | 38111 ft | 490 kts | 83° |
| 2026-05-08 19:26 | 51.15085 | 1.17916 | 38112 ft | 490 kts | 83° |
| 2026-05-08 19:27 | 51.15794 | 1.28701 | 38123 ft | 490 kts | 83° |
| 2026-05-08 19:27 | 51.16094 | 1.39523 | 38111 ft | 490 kts | 92° |
| 2026-05-08 19:28 | 51.15563 | 1.50345 | 38119 ft | 489 kts | 94° |
| 2026-05-08 19:28 | 51.15042 | 1.61144 | 38114 ft | 489 kts | 94° |
| 2026-05-08 19:29 | 51.14512 | 1.71944 | 38109 ft | 489 kts | 94° |
| 2026-05-08 19:29 | 51.13968 | 1.82731 | 38107 ft | 489 kts | 94° |
| 2026-05-08 19:30 | 51.13413 | 1.93511 | 38109 ft | 488 kts | 94° |
| 2026-05-08 19:30 | 51.12849 | 2.04263 | 38107 ft | 487 kts | 94° |
| 2026-05-08 19:31 | 51.12276 | 2.15007 | 38104 ft | 487 kts | 94° |
| 2026-05-08 19:31 | 51.11697 | 2.25669 | 38102 ft | 487 kts | 94° |
| 2026-05-08 19:32 | 51.11105 | 2.36396 | 38101 ft | 486 kts | 94° |
| 2026-05-08 19:32 | 51.10503 | 2.47120 | 38098 ft | 487 kts | 94° |
| 2026-05-08 19:33 | 51.09891 | 2.57834 | 38098 ft | 487 kts | 94° |
| 2026-05-08 19:33 | 51.08985 | 2.68508 | 38097 ft | 488 kts | 102° |
| 2026-05-08 19:34 | 51.07379 | 2.78999 | 38099 ft | 488 kts | 103° |
| 2026-05-08 19:34 | 51.05862 | 2.88996 | 38092 ft | 489 kts | 103° |
| 2026-05-08 19:35 | 51.04262 | 2.99504 | 38094 ft | 490 kts | 103° |
| 2026-05-08 19:35 | 51.02646 | 3.10021 | 38098 ft | 490 kts | 103° |
| 2026-05-08 19:36 | 51.01296 | 3.18755 | 38098 ft | 490 kts | 103° |
| 2026-05-08 19:36 | 50.99663 | 3.29263 | 38097 ft | 490 kts | 103° |
| 2026-05-08 19:37 | 50.98016 | 3.39786 | 38088 ft | 492 kts | 103° |
| 2026-05-08 19:37 | 50.96357 | 3.50316 | 38090 ft | 492 kts | 103° |
| 2026-05-08 19:38 | 50.94688 | 3.60842 | 38093 ft | 493 kts | 103° |
| 2026-05-08 19:38 | 50.93006 | 3.71379 | 38095 ft | 493 kts | 103° |
| 2026-05-08 19:39 | 50.91314 | 3.81915 | 38092 ft | 493 kts | 103° |
| 2026-05-08 19:39 | 50.89612 | 3.92451 | 38097 ft | 494 kts | 103° |
| 2026-05-08 19:40 | 50.87900 | 4.02985 | 38092 ft | 494 kts | 103° |
| 2026-05-08 19:40 | 50.86148 | 4.13508 | 38103 ft | 494 kts | 104° |
| 2026-05-08 19:41 | 50.84368 | 4.24022 | 38104 ft | 495 kts | 104° |
| 2026-05-08 19:41 | 50.82584 | 4.34533 | 38104 ft | 495 kts | 104° |
| 2026-05-08 19:42 | 50.80792 | 4.45033 | 38103 ft | 495 kts | 104° |
| 2026-05-08 19:42 | 50.78992 | 4.55524 | 38104 ft | 495 kts | 104° |
| 2026-05-08 19:43 | 50.77181 | 4.66014 | 38098 ft | 495 kts | 104° |
| 2026-05-08 19:43 | 50.74673 | 4.76103 | 38108 ft | 495 kts | 119° |
| 2026-05-08 19:44 | 50.70540 | 4.84749 | 38107 ft | 494 kts | 135° |
| 2026-05-08 19:44 | 50.66239 | 4.93129 | 38101 ft | 494 kts | 117° |
| 2026-05-08 19:45 | 50.63694 | 5.03159 | 38099 ft | 493 kts | 107° |
| 2026-05-08 19:45 | 50.61638 | 5.13466 | 38107 ft | 494 kts | 107° |
| 2026-05-08 19:46 | 50.59557 | 5.23752 | 38110 ft | 493 kts | 107° |
| 2026-05-08 19:46 | 50.56367 | 5.39109 | 38106 ft | 492 kts | 108° |
| 2026-05-08 19:47 | 50.54257 | 5.49310 | 37679 ft | 488 kts | 106° |
| 2026-05-08 19:47 | 50.53304 | 5.54411 | 37067 ft | 486 kts | 104° |
| 2026-05-08 19:47 | 50.52390 | 5.59452 | 36389 ft | 486 kts | 104° |
| 2026-05-08 19:48 | 50.51464 | 5.64540 | 35681 ft | 484 kts | 104° |
| 2026-05-08 19:48 | 50.50528 | 5.69605 | 34889 ft | 484 kts | 104° |
| 2026-05-08 19:48 | 50.49577 | 5.74687 | 34080 ft | 484 kts | 104° |
| 2026-05-08 19:48 | 50.48623 | 5.79755 | 33186 ft | 483 kts | 104° |
| 2026-05-08 19:49 | 50.47669 | 5.84800 | 32290 ft | 482 kts | 104° |
| 2026-05-08 19:49 | 50.46712 | 5.89840 | 31395 ft | 481 kts | 104° |
| 2026-05-08 19:49 | 50.45748 | 5.94903 | 30711 ft | 475 kts | 104° |
| 2026-05-08 19:49 | 50.44818 | 5.99774 | 30103 ft | 469 kts | 104° |
| 2026-05-08 19:50 | 50.43887 | 6.04649 | 29389 ft | 463 kts | 105° |
| 2026-05-08 19:50 | 50.42970 | 6.09454 | 28685 ft | 458 kts | 105° |
| 2026-05-08 19:50 | 50.42056 | 6.14207 | 27983 ft | 453 kts | 106° |
| 2026-05-08 19:50 | 50.41149 | 6.18905 | 27295 ft | 448 kts | 106° |
| 2026-05-08 19:51 | 50.40250 | 6.23548 | 26610 ft | 443 kts | 106° |
| 2026-05-08 19:51 | 50.39358 | 6.28146 | 25943 ft | 439 kts | 106° |
| 2026-05-08 19:51 | 50.38474 | 6.32694 | 25287 ft | 434 kts | 107° |
| 2026-05-08 19:51 | 50.37598 | 6.37193 | 24628 ft | 430 kts | 107° |
| 2026-05-08 19:52 | 50.36729 | 6.41650 | 23978 ft | 426 kts | 107° |
| 2026-05-08 19:52 | 50.35868 | 6.46050 | 23283 ft | 422 kts | 107° |
| 2026-05-08 19:52 | 50.35010 | 6.50430 | 22493 ft | 418 kts | 107° |
| 2026-05-08 19:52 | 50.34161 | 6.54752 | 21765 ft | 413 kts | 107° |
| 2026-05-08 19:53 | 50.33318 | 6.59032 | 21038 ft | 409 kts | 107° |
| 2026-05-08 19:53 | 50.32482 | 6.63260 | 20309 ft | 405 kts | 108° |
| 2026-05-08 19:53 | 50.31653 | 6.67452 | 19577 ft | 401 kts | 108° |
| 2026-05-08 19:53 | 50.30832 | 6.71593 | 18874 ft | 397 kts | 108° |
| 2026-05-08 19:54 | 50.30017 | 6.75699 | 18140 ft | 393 kts | 108° |
| 2026-05-08 19:54 | 50.29211 | 6.79750 | 17586 ft | 386 kts | 108° |
| 2026-05-08 19:54 | 50.28411 | 6.83755 | 17281 ft | 387 kts | 108° |
| 2026-05-08 19:54 | 50.27607 | 6.87777 | 16981 ft | 386 kts | 108° |
| 2026-05-08 19:55 | 50.26807 | 6.91771 | 16651 ft | 384 kts | 108° |
| 2026-05-08 19:55 | 50.26011 | 6.95734 | 16351 ft | 382 kts | 108° |
| 2026-05-08 19:55 | 50.25215 | 6.99693 | 16043 ft | 381 kts | 108° |
| 2026-05-08 19:55 | 50.24424 | 7.03620 | 15733 ft | 378 kts | 108° |
| 2026-05-08 19:56 | 50.23633 | 7.07537 | 15440 ft | 377 kts | 108° |
| 2026-05-08 19:56 | 50.22857 | 7.11372 | 15147 ft | 375 kts | 108° |
| 2026-05-08 19:56 | 50.22063 | 7.15290 | 14847 ft | 373 kts | 109° |
| 2026-05-08 19:56 | 50.21281 | 7.19140 | 14560 ft | 371 kts | 109° |
| 2026-05-08 19:57 | 50.20503 | 7.22963 | 14267 ft | 369 kts | 109° |
| 2026-05-08 19:57 | 50.19735 | 7.26731 | 13987 ft | 368 kts | 109° |
| 2026-05-08 19:57 | 50.18963 | 7.30512 | 13661 ft | 366 kts | 109° |
| 2026-05-08 19:57 | 50.18190 | 7.34283 | 13351 ft | 363 kts | 109° |
| 2026-05-08 19:58 | 50.17419 | 7.38043 | 13035 ft | 364 kts | 108° |
| 2026-05-08 19:58 | 50.16655 | 7.41765 | 12716 ft | 354 kts | 109° |
| 2026-05-08 19:58 | 50.15932 | 7.45287 | 12394 ft | 329 kts | 109° |
| 2026-05-08 19:58 | 50.15257 | 7.48568 | 12087 ft | 307 kts | 109° |
| 2026-05-08 19:59 | 50.14613 | 7.51687 | 11793 ft | 300 kts | 109° |
| 2026-05-08 19:59 | 50.13972 | 7.54775 | 11484 ft | 300 kts | 109° |
| 2026-05-08 19:59 | 50.13331 | 7.57863 | 11215 ft | 298 kts | 109° |
| 2026-05-08 19:59 | 50.12706 | 7.60879 | 11120 ft | 283 kts | 109° |
| 2026-05-08 20:00 | 50.12126 | 7.63684 | 11119 ft | 261 kts | 109° |
| 2026-05-08 20:00 | 50.11564 | 7.66384 | 11121 ft | 265 kts | 109° |
| 2026-05-08 20:00 | 50.10997 | 7.69101 | 11126 ft | 263 kts | 109° |
| 2026-05-08 20:00 | 50.10453 | 7.71816 | 11053 ft | 261 kts | 108° |
| 2026-05-08 20:01 | 50.09930 | 7.74527 | 10722 ft | 261 kts | 108° |
| 2026-05-08 20:01 | 50.09413 | 7.77225 | 10276 ft | 260 kts | 108° |
| 2026-05-08 20:01 | 50.08896 | 7.79913 | 9726 ft | 259 kts | 108° |
| 2026-05-08 20:01 | 50.08376 | 7.82588 | 9135 ft | 257 kts | 108° |
| 2026-05-08 20:02 | 50.07981 | 7.85273 | 8523 ft | 256 kts | 94° |
| 2026-05-08 20:02 | 50.08238 | 7.87979 | 7981 ft | 252 kts | 70° |
| 2026-05-08 20:02 | 50.08890 | 7.90476 | 7450 ft | 249 kts | 67° |
| 2026-05-08 20:02 | 50.09536 | 7.92966 | 7184 ft | 247 kts | 68° |
| 2026-05-08 20:03 | 50.10166 | 7.95467 | 7121 ft | 248 kts | 69° |
| 2026-05-08 20:03 | 50.10786 | 7.97972 | 7109 ft | 248 kts | 69° |
| 2026-05-08 20:03 | 50.11399 | 8.00479 | 7110 ft | 248 kts | 69° |
| 2026-05-08 20:03 | 50.12012 | 8.02996 | 7106 ft | 248 kts | 69° |
| 2026-05-08 20:04 | 50.12623 | 8.05512 | 7104 ft | 248 kts | 69° |
| 2026-05-08 20:04 | 50.13234 | 8.08028 | 7105 ft | 248 kts | 69° |
| 2026-05-08 20:04 | 50.13840 | 8.10542 | 7106 ft | 248 kts | 70° |
| 2026-05-08 20:04 | 50.14015 | 8.13190 | 7108 ft | 247 kts | 98° |
| 2026-05-08 20:05 | 50.13398 | 8.15661 | 7114 ft | 246 kts | 123° |
| 2026-05-08 20:05 | 50.12253 | 8.17617 | 7116 ft | 245 kts | 147° |
| 2026-05-08 20:05 | 50.10689 | 8.18525 | 7018 ft | 240 kts | 175° |
| 2026-05-08 20:05 | 50.09072 | 8.18185 | 6665 ft | 236 kts | 204° |
| 2026-05-08 20:06 | 50.07714 | 8.16769 | 6144 ft | 234 kts | 222° |
| 2026-05-08 20:06 | 50.06517 | 8.15054 | 5561 ft | 234 kts | 224° |
| 2026-05-08 20:06 | 50.05333 | 8.13364 | 5157 ft | 233 kts | 221° |
| 2026-05-08 20:06 | 50.04058 | 8.11691 | 5028 ft | 237 kts | 219° |
| 2026-05-08 20:07 | 50.02763 | 8.10176 | 5016 ft | 236 kts | 219° |
| 2026-05-08 20:07 | 50.01490 | 8.08551 | 5016 ft | 237 kts | 219° |
| 2026-05-08 20:07 | 50.00216 | 8.06919 | 5015 ft | 237 kts | 219° |
| 2026-05-08 20:07 | 49.98970 | 8.05243 | 5008 ft | 237 kts | 227° |
| 2026-05-08 20:08 | 49.98211 | 8.03000 | 5014 ft | 237 kts | 258° |
| 2026-05-08 20:08 | 49.98172 | 8.00444 | 5015 ft | 238 kts | 274° |
| 2026-05-08 20:08 | 49.98263 | 7.97891 | 5013 ft | 237 kts | 274° |
| 2026-05-08 20:08 | 49.98353 | 7.95332 | 5013 ft | 238 kts | 274° |
| 2026-05-08 20:09 | 49.98445 | 7.92768 | 5016 ft | 237 kts | 274° |
| 2026-05-08 20:09 | 49.98535 | 7.90215 | 5014 ft | 237 kts | 274° |
| 2026-05-08 20:09 | 49.98571 | 7.87663 | 5005 ft | 236 kts | 263° |
| 2026-05-08 20:09 | 49.98012 | 7.85337 | 5017 ft | 237 kts | 235° |
| 2026-05-08 20:10 | 49.96788 | 7.83662 | 5011 ft | 237 kts | 206° |
| 2026-05-08 20:10 | 49.95216 | 7.82923 | 5007 ft | 237 kts | 193° |
| 2026-05-08 20:10 | 49.93614 | 7.82316 | 5012 ft | 237 kts | 193° |
| 2026-05-08 20:10 | 49.92012 | 7.81713 | 5008 ft | 236 kts | 191° |
| 2026-05-08 20:11 | 49.90390 | 7.81802 | 5009 ft | 235 kts | 162° |
| 2026-05-08 20:11 | 49.89014 | 7.83100 | 5009 ft | 233 kts | 132° |
| 2026-05-08 20:11 | 49.88243 | 7.85275 | 5007 ft | 232 kts | 104° |
| 2026-05-08 20:11 | 49.88258 | 7.87749 | 5009 ft | 233 kts | 74° |
| 2026-05-08 20:12 | 49.88887 | 7.90052 | 5014 ft | 233 kts | 59° |
| 2026-05-08 20:12 | 49.89735 | 7.92180 | 5008 ft | 233 kts | 60° |
| 2026-05-08 20:12 | 49.90445 | 7.94447 | 5011 ft | 232 kts | 67° |
| 2026-05-08 20:12 | 49.90838 | 7.96001 | 5010 ft | 233 kts | 70° |
| 2026-05-08 20:13 | 49.90875 | 7.96156 | 5007 ft | 233 kts | 70° |
| 2026-05-08 20:13 | 49.91423 | 7.98489 | 5008 ft | 233 kts | 70° |
| 2026-05-08 20:13 | 49.91989 | 8.00845 | 5006 ft | 233 kts | 69° |
| 2026-05-08 20:13 | 49.92558 | 8.03213 | 5012 ft | 235 kts | 69° |
| 2026-05-08 20:14 | 49.93087 | 8.05417 | 5012 ft | 234 kts | 69° |
| 2026-05-08 20:14 | 49.93165 | 8.05744 | 5011 ft | 235 kts | 69° |
| 2026-05-08 20:14 | 49.93446 | 8.06912 | 5013 ft | 234 kts | 69° |
| 2026-05-08 20:14 | 49.93932 | 8.08937 | 5012 ft | 234 kts | 69° |
| 2026-05-08 20:15 | 49.94004 | 8.09236 | 5011 ft | 234 kts | 69° |
| 2026-05-08 20:15 | 49.94572 | 8.11603 | 5013 ft | 234 kts | 69° |
| 2026-05-08 20:15 | 49.95141 | 8.13974 | 5013 ft | 235 kts | 69° |
| 2026-05-08 20:16 | 49.95709 | 8.16342 | 5009 ft | 234 kts | 69° |
| 2026-05-08 20:16 | 49.96279 | 8.18712 | 4819 ft | 234 kts | 69° |
| 2026-05-08 20:16 | 49.96849 | 8.21061 | 4640 ft | 234 kts | 69° |
| 2026-05-08 20:16 | 49.97420 | 8.23442 | 4842 ft | 235 kts | 70° |
| 2026-05-08 20:17 | 49.97983 | 8.25824 | 4979 ft | 234 kts | 70° |
| 2026-05-08 20:17 | 49.98549 | 8.28207 | 5016 ft | 235 kts | 70° |
| 2026-05-08 20:17 | 49.99116 | 8.30583 | 5016 ft | 234 kts | 69° |
| 2026-05-08 20:17 | 49.99688 | 8.32954 | 5017 ft | 234 kts | 69° |
| 2026-05-08 20:18 | 50.00262 | 8.35323 | 5016 ft | 235 kts | 69° |
| 2026-05-08 20:18 | 50.00840 | 8.37730 | 5303 ft | 240 kts | 69° |
| 2026-05-08 20:18 | 50.01425 | 8.40183 | 6071 ft | 243 kts | 69° |
| 2026-05-08 20:18 | 50.02017 | 8.42667 | 6817 ft | 247 kts | 69° |
| 2026-05-08 20:19 | 50.02612 | 8.45145 | 7499 ft | 251 kts | 69° |
| 2026-05-08 20:19 | 50.03226 | 8.47699 | 7881 ft | 254 kts | 69° |
| 2026-05-08 20:19 | 50.03846 | 8.50278 | 7993 ft | 255 kts | 69° |
| 2026-05-08 20:19 | 50.04467 | 8.52865 | 7998 ft | 255 kts | 69° |
| 2026-05-08 20:20 | 50.05084 | 8.55446 | 7999 ft | 254 kts | 69° |
| 2026-05-08 20:20 | 50.05899 | 8.57892 | 8006 ft | 253 kts | 49° |
| 2026-05-08 20:20 | 50.07088 | 8.59863 | 8003 ft | 254 kts | 49° |
| 2026-05-08 20:20 | 50.08139 | 8.62065 | 8002 ft | 254 kts | 53° |
| 2026-05-08 20:21 | 50.09168 | 8.64298 | 7992 ft | 254 kts | 53° |
| 2026-05-08 20:21 | 50.10200 | 8.66538 | 8001 ft | 254 kts | 53° |
| 2026-05-08 20:21 | 50.11231 | 8.68769 | 8000 ft | 254 kts | 53° |
| 2026-05-08 20:21 | 50.12264 | 8.71006 | 8002 ft | 254 kts | 53° |
| 2026-05-08 20:22 | 50.13294 | 8.73242 | 8004 ft | 254 kts | 53° |
| 2026-05-08 20:22 | 50.13989 | 8.74752 | 8003 ft | 254 kts | 53° |
| 2026-05-08 20:22 | 50.15017 | 8.76987 | 8007 ft | 254 kts | 53° |
| 2026-05-08 20:22 | 50.16046 | 8.79226 | 8006 ft | 254 kts | 53° |
| 2026-05-08 20:23 | 50.17075 | 8.81467 | 8009 ft | 254 kts | 53° |
| 2026-05-08 20:23 | 50.18236 | 8.83511 | 8016 ft | 252 kts | 35° |
| 2026-05-08 20:23 | 50.19824 | 8.84578 | 8012 ft | 249 kts | 7° |
| 2026-05-08 20:23 | 50.21523 | 8.84362 | 8015 ft | 246 kts | 338° |
| 2026-05-08 20:24 | 50.22924 | 8.82926 | 8013 ft | 242 kts | 310° |
| 2026-05-08 20:24 | 50.23692 | 8.80628 | 8014 ft | 240 kts | 281° |
| 2026-05-08 20:24 | 50.23636 | 8.78052 | 8008 ft | 240 kts | 253° |
| 2026-05-08 20:24 | 50.22889 | 8.75745 | 8016 ft | 240 kts | 235° |
| 2026-05-08 20:25 | 50.21953 | 8.73577 | 8006 ft | 240 kts | 238° |
| 2026-05-08 20:25 | 50.21087 | 8.71352 | 8007 ft | 240 kts | 240° |
| 2026-05-08 20:25 | 50.20256 | 8.69092 | 8008 ft | 240 kts | 240° |
| 2026-05-08 20:25 | 50.19449 | 8.66843 | 8005 ft | 240 kts | 241° |
| 2026-05-08 20:26 | 50.18629 | 8.64551 | 8006 ft | 240 kts | 241° |
| 2026-05-08 20:26 | 50.17814 | 8.62282 | 8000 ft | 240 kts | 241° |
| 2026-05-08 20:26 | 50.16995 | 8.60014 | 8004 ft | 240 kts | 241° |
| 2026-05-08 20:26 | 50.16179 | 8.57756 | 8026 ft | 240 kts | 241° |
| 2026-05-08 20:27 | 50.15356 | 8.55485 | 8020 ft | 240 kts | 241° |
| 2026-05-08 20:27 | 50.14533 | 8.53222 | 8028 ft | 240 kts | 241° |
| 2026-05-08 20:27 | 50.13707 | 8.50953 | 8027 ft | 240 kts | 240° |
| 2026-05-08 20:27 | 50.12883 | 8.48695 | 8027 ft | 240 kts | 240° |
| 2026-05-08 20:28 | 50.12057 | 8.46432 | 8025 ft | 240 kts | 241° |
| 2026-05-08 20:28 | 50.11246 | 8.44166 | 8017 ft | 240 kts | 244° |
| 2026-05-08 20:28 | 50.10633 | 8.41754 | 8019 ft | 240 kts | 250° |
| 2026-05-08 20:28 | 50.10069 | 8.39322 | 8020 ft | 240 kts | 250° |
| 2026-05-08 20:29 | 50.09493 | 8.36876 | 8015 ft | 240 kts | 250° |
| 2026-05-08 20:29 | 50.08917 | 8.34480 | 8009 ft | 239 kts | 250° |
| 2026-05-08 20:29 | 50.08338 | 8.32076 | 7824 ft | 237 kts | 250° |
| 2026-05-08 20:29 | 50.07760 | 8.29686 | 7440 ft | 236 kts | 250° |
| 2026-05-08 20:30 | 50.07182 | 8.27300 | 6970 ft | 235 kts | 250° |
| 2026-05-08 20:30 | 50.06606 | 8.24929 | 6512 ft | 234 kts | 250° |
| 2026-05-08 20:30 | 50.06030 | 8.22553 | 5997 ft | 235 kts | 249° |
| 2026-05-08 20:30 | 50.05452 | 8.20163 | 5473 ft | 236 kts | 249° |
| 2026-05-08 20:31 | 50.04875 | 8.17779 | 5123 ft | 233 kts | 249° |
| 2026-05-08 20:31 | 50.04291 | 8.15376 | 5026 ft | 239 kts | 249° |
| 2026-05-08 20:31 | 50.03706 | 8.12972 | 5014 ft | 237 kts | 249° |
| 2026-05-08 20:31 | 50.03121 | 8.10575 | 5015 ft | 237 kts | 249° |
| 2026-05-08 20:32 | 50.02533 | 8.08171 | 5014 ft | 238 kts | 249° |
| 2026-05-08 20:32 | 50.01949 | 8.05788 | 5011 ft | 230 kts | 249° |
| 2026-05-08 20:32 | 50.01404 | 8.03561 | 5011 ft | 214 kts | 249° |
| 2026-05-08 20:32 | 50.00866 | 8.01358 | 5014 ft | 218 kts | 249° |
| 2026-05-08 20:33 | 50.00329 | 7.99169 | 5015 ft | 216 kts | 249° |
| 2026-05-08 20:33 | 49.99794 | 7.96987 | 5013 ft | 217 kts | 249° |
| 2026-05-08 20:33 | 49.99255 | 7.94794 | 5012 ft | 216 kts | 249° |
| 2026-05-08 20:33 | 49.98727 | 7.92610 | 5015 ft | 217 kts | 249° |
| 2026-05-08 20:34 | 49.98200 | 7.90422 | 5013 ft | 216 kts | 249° |
| 2026-05-08 20:34 | 49.97670 | 7.88225 | 5012 ft | 217 kts | 249° |
| 2026-05-08 20:34 | 49.96614 | 7.83842 | 5009 ft | 217 kts | 249° |
| 2026-05-08 20:35 | 49.96086 | 7.81648 | 5009 ft | 217 kts | 249° |
| 2026-05-08 20:35 | 49.95556 | 7.79450 | 5008 ft | 216 kts | 249° |
| 2026-05-08 20:35 | 49.94831 | 7.77430 | 5016 ft | 216 kts | 226° |
| 2026-05-08 20:35 | 49.93562 | 7.76231 | 5011 ft | 216 kts | 194° |
| 2026-05-08 20:36 | 49.92090 | 7.76253 | 5009 ft | 214 kts | 161° |
| 2026-05-08 20:36 | 49.90867 | 7.77492 | 5010 ft | 212 kts | 129° |
| 2026-05-08 20:36 | 49.90258 | 7.79541 | 5020 ft | 212 kts | 103° |
| 2026-05-08 20:36 | 49.89929 | 7.81770 | 5001 ft | 211 kts | 97° |
| 2026-05-08 20:37 | 49.90057 | 7.84027 | 5006 ft | 213 kts | 77° |
| 2026-05-08 20:37 | 49.90413 | 7.86246 | 5009 ft | 212 kts | 75° |
| 2026-05-08 20:37 | 49.90791 | 7.88454 | 5011 ft | 212 kts | 75° |
| 2026-05-08 20:37 | 49.91144 | 7.90670 | 5008 ft | 212 kts | 76° |
| 2026-05-08 20:38 | 49.91469 | 7.92896 | 5010 ft | 212 kts | 77° |
| 2026-05-08 20:38 | 49.91777 | 7.95130 | 5009 ft | 212 kts | 78° |
| 2026-05-08 20:38 | 49.92078 | 7.97365 | 5010 ft | 212 kts | 78° |
| 2026-05-08 20:38 | 49.92375 | 7.99614 | 5010 ft | 213 kts | 78° |
| 2026-05-08 20:39 | 49.92567 | 8.01887 | 5009 ft | 213 kts | 82° |
| 2026-05-08 20:39 | 49.92851 | 8.04135 | 5010 ft | 213 kts | 75° |
| 2026-05-08 20:39 | 49.93303 | 8.06325 | 5012 ft | 213 kts | 70° |
| 2026-05-08 20:39 | 49.93821 | 8.08475 | 5011 ft | 212 kts | 69° |
| 2026-05-08 20:40 | 49.94338 | 8.10624 | 5015 ft | 213 kts | 70° |
| 2026-05-08 20:40 | 49.94854 | 8.12776 | 5012 ft | 213 kts | 69° |
| 2026-05-08 20:40 | 49.95370 | 8.14925 | 5014 ft | 212 kts | 70° |
| 2026-05-08 20:40 | 49.95886 | 8.17076 | 4962 ft | 213 kts | 69° |
| 2026-05-08 20:41 | 49.96390 | 8.19179 | 4720 ft | 207 kts | 70° |
| 2026-05-08 20:41 | 49.96883 | 8.21234 | 4417 ft | 198 kts | 70° |
| 2026-05-08 20:41 | 49.97359 | 8.23214 | 4139 ft | 189 kts | 70° |
| 2026-05-08 20:41 | 49.97808 | 8.25087 | 3868 ft | 182 kts | 70° |
| 2026-05-08 20:42 | 49.98236 | 8.26877 | 3612 ft | 177 kts | 70° |
| 2026-05-08 20:42 | 49.98654 | 8.28616 | 3365 ft | 167 kts | 70° |
| 2026-05-08 20:42 | 49.99075 | 8.30375 | 3123 ft | 172 kts | 70° |
| 2026-05-08 20:42 | 49.99479 | 8.32060 | 2870 ft | 169 kts | 71° |
| 2026-05-08 20:43 | 49.99887 | 8.33767 | 2619 ft | 167 kts | 70° |
| 2026-05-08 20:43 | 50.00290 | 8.35445 | 2392 ft | 166 kts | 71° |
| 2026-05-08 20:43 | 50.00691 | 8.37121 | 2154 ft | 165 kts | 70° |
| 2026-05-08 20:43 | 50.01096 | 8.38811 | 1908 ft | 164 kts | 70° |
| 2026-05-08 20:44 | 50.01487 | 8.40443 | 1689 ft | 164 kts | 70° |
| 2026-05-08 20:44 | 50.01878 | 8.42077 | 1441 ft | 155 kts | 70° |
| 2026-05-08 20:44 | 50.02236 | 8.43570 | 1219 ft | 140 kts | 69° |
| 2026-05-08 20:44 | 50.02574 | 8.44976 | 1050 ft | 139 kts | 66° |
| 2026-05-08 20:45 | 50.02914 | 8.46346 | 799 ft | 134 kts | 66° |
| 2026-05-08 20:45 | 50.03137 | 8.47286 | 695 ft | 139 kts | 68° |
| 2026-05-08 20:45 | 50.03549 | 8.49117 | 447 ft | 136 kts | 68° |
| 2026-05-08 20:45 | 50.03860 | 8.50473 | 325 ft | 127 kts | 67° |
| 2026-05-08 20:46 | 50.04127 | 8.51412 | 336 ft | 65 kts | 69° |
| 2026-05-08 20:46 | 50.04236 | 8.51899 | 346 ft | 42 kts | 70° |
| 2026-05-08 20:46 | 50.04318 | 8.52257 | 354 ft | 14 kts | 70° |
| 2026-05-08 20:46 | 50.04354 | 8.52415 | 353 ft | 18 kts | 70° |
| 2026-05-08 20:47 | 50.04392 | 8.52632 | 359 ft | 22 kts | 81° |
| 2026-05-08 20:47 | 50.04388 | 8.52858 | 357 ft | 21 kts | 98° |
| 2026-05-08 20:47 | 50.04366 | 8.53071 | 366 ft | 19 kts | 99° |
| 2026-05-08 20:47 | 50.04350 | 8.53235 | 368 ft | 16 kts | 93° |
| 2026-05-08 20:48 | 50.04369 | 8.53373 | 375 ft | 11 kts | 72° |
| 2026-05-08 20:48 | 50.04388 | 8.53465 | 380 ft | 7 kts | 72° |
| 2026-05-08 20:48 | 50.04399 | 8.53569 | 381 ft | 14 kts | 83° |
| 2026-05-08 20:48 | 50.04412 | 8.53736 | 381 ft | 17 kts | 85° |
| 2026-05-08 20:49 | 50.04422 | 8.53923 | 381 ft | 18 kts | 85° |
| 2026-05-08 20:49 | 50.04435 | 8.54120 | 381 ft | 14 kts | 83° |
| 2026-05-08 20:49 | 50.04446 | 8.54280 | 381 ft | 16 kts | 84° |
| 2026-05-08 20:49 | 50.04448 | 8.54470 | 376 ft | 20 kts | 103° |
| 2026-05-08 20:50 | 50.04390 | 8.54681 | 372 ft | 23 kts | 130° |
| 2026-05-08 20:50 | 50.04294 | 8.54784 | 369 ft | 17 kts | 156° |
| 2026-05-08 20:50 | 50.04179 | 8.54846 | 364 ft | 17 kts | 161° |
| 2026-05-08 20:50 | 50.04119 | 8.54881 | 363 ft | 4 kts | 158° |
| 2026-05-08 20:51 | 50.04062 | 8.54915 | 364 ft | 11 kts | 159° |
| 2026-05-08 20:51 | 50.04020 | 8.54998 | 365 ft | 10 kts | 97° |
| 2026-05-08 20:51 | 50.04041 | 8.55107 | 363 ft | 11 kts | 69° |
| 2026-05-08 20:51 | 50.04070 | 8.55228 | 362 ft | 13 kts | 69° |
| 2026-05-08 20:52 | 50.04105 | 8.55377 | 364 ft | 17 kts | 70° |
| 2026-05-08 20:52 | 50.04151 | 8.55568 | 362 ft | 19 kts | 70° |
| 2026-05-08 20:52 | 50.04197 | 8.55764 | 362 ft | 19 kts | 69° |
| 2026-05-08 20:52 | 50.04243 | 8.55954 | 365 ft | 19 kts | 69° |
| 2026-05-08 20:53 | 50.04290 | 8.56149 | 365 ft | 19 kts | 69° |
| 2026-05-08 20:53 | 50.04330 | 8.56319 | 365 ft | 14 kts | 70° |
| 2026-05-08 20:53 | 50.04366 | 8.56471 | 366 ft | 15 kts | 70° |
| 2026-05-08 20:53 | 50.04394 | 8.56587 | 367 ft | 0 kts | 69° |
| 2026-05-08 20:54 | 50.04395 | 8.56594 | 367 ft | 0 kts | 69° |
| 2026-05-08 20:54 | 50.04395 | 8.56593 | 367 ft | 0 kts | 69° |
| 2026-05-08 20:55 | 50.04408 | 8.56646 | 367 ft | 9 kts | 69° |
| 2026-05-08 20:55 | 50.04433 | 8.56749 | 367 ft | 11 kts | 69° |
| 2026-05-08 20:55 | 50.04460 | 8.56861 | 369 ft | 13 kts | 70° |
| 2026-05-08 20:55 | 50.04511 | 8.57076 | 368 ft | 26 kts | 69° |
| 2026-05-08 20:56 | 50.04564 | 8.57299 | 364 ft | 21 kts | 71° |
| 2026-05-08 20:56 | 50.04617 | 8.57520 | 366 ft | 22 kts | 69° |
| 2026-05-08 20:56 | 50.04669 | 8.57739 | 368 ft | 19 kts | 70° |
| 2026-05-08 20:56 | 50.04712 | 8.57894 | 365 ft | 12 kts | 54° |
| 2026-05-08 20:57 | 50.04776 | 8.57920 | 363 ft | 7 kts | 355° |
| 2026-05-08 20:57 | 50.04823 | 8.57953 | 368 ft | 8 kts | 26° |
| 2026-05-08 20:57 | 50.04875 | 8.57969 | 366 ft | 7 kts | 12° |
| 2026-05-08 20:57 | 50.04892 | 8.57975 | 370 ft | 0 kts | 12° |